Flight Track Log - Related Links

Times and Time Zones

All times are in EDT time to prevent confusion due to time zone crossing. See the UAL139 flight status page for this flight to view local times or setup timezone preferences in your user account.

Time Position Orientation Groundspeed Altitude Reporting Facility
EDT Latitude Longitude Course Direction KTS MPH feet Rate Location/Type
Fri 02:51:39 PM 39.8650 -104.6960 322° Northwest 138 159 5,000  Level FlightAware ADS-B
Fri 02:52:04 PM 39.8860 -104.6960 360° North 212 244 5,100 1,174 Climbing FlightAware ADS-B
Fri 02:52:25 PM 39.9080 -104.6970 358° North 217 250 5,900 2,323 Climbing FlightAware ADS-B
Fri 02:52:35 PM 39.9170 -104.7010 341° North 218 251 6,300 1,667 Climbing FlightAware ADS-B
Fri 02:52:43 PM 39.9230 -104.7070 323° Northwest 224 258 6,400 750 Climbing FlightAware ADS-B
Fri 02:52:51 PM 39.9290 -104.7160 311° West 235 270 6,500 600 Climbing FlightAware ADS-B
Fri 02:53:03 PM 39.9350 -104.7310 298° West 250 288 6,600 750 Climbing FlightAware ADS-B
Fri 02:53:15 PM 39.9400 -104.7480 291° West 260 299 6,800 1,588 Climbing FlightAware ADS-B
Fri 02:53:37 PM 39.9490 -104.7820 289° West 274 315 7,500 1,571 Climbing FlightAware ADS-B
Fri 02:53:57 PM 39.9580 -104.8160 289° West 293 337 7,900 1,500 Climbing FlightAware ADS-B
Fri 02:54:05 PM 39.9610 -104.8300 286° West 295 339 8,200 2,400 Climbing FlightAware ADS-B
Fri 02:54:27 PM 39.9620 -104.8670 272° West 294 338 9,100 2,000 Climbing FlightAware ADS-B
Fri 02:54:47 PM 39.9620 -104.9030 270° West 302 348 9,600 1,444 Climbing FlightAware ADS-B
Fri 02:55:21 PM 39.9630 -104.9670 271° West 323 372 10,400 1,286 Climbing FlightAware ADS-B
Fri 02:55:57 PM 39.9630 -105.0410 270° West 354 407 11,100 2,000 Climbing FlightAware ADS-B
Fri 02:56:27 PM 39.9700 -105.1040 278° West 350 403 12,600 2,719 Climbing FlightAware ADS-B
Fri 02:57:01 PM 39.9970 -105.1660 300° West 354 407 14,000 2,314 Climbing FlightAware ADS-B
Fri 02:57:37 PM 40.0280 -105.2340 301° West 361 415 15,300 2,143 Climbing FlightAware ADS-B
Fri 02:58:11 PM 40.0560 -105.2980 300° West 366 421 16,500 2,111 Climbing FlightAware ADS-B
Fri 02:58:31 PM 40.0680 -105.3410 290° West 368 423 17,200 2,036 Climbing FlightAware ADS-B
Fri 02:59:07 PM 40.0640 -105.4190 266° West 370 426 18,400 2,082 Climbing FlightAware ADS-B
Fri 02:59:20 PM 40.0550 -105.4440 245° Southwest 370 426 18,900 2,160 Climbing FlightAware ADS-B
Fri 02:59:57 PM 40.0140 -105.5090 231° Southwest 373 429 20,200 1,913 Climbing FlightAware ADS-B
Fri 03:00:29 PM 39.9700 -105.5550 219° Southwest 377 434 21,100 1,875 Climbing FlightAware ADS-B
Fri 03:00:45 PM 39.9510 -105.5800 225° Southwest 376 433 21,700 1,833 Climbing FlightAware ADS-B
Fri 03:01:05 PM 39.9320 -105.6190 238° Southwest 381 438 22,200 1,400 Climbing FlightAware ADS-B
Fri 03:01:15 PM 39.9260 -105.6400 250° West 385 443 22,400 842 Climbing FlightAware ADS-B
Fri 03:02:02 PM 39.9290 -105.7480 272° West 410 472 23,000 1,091 Climbing FlightAware ADS-B
Fri 03:02:43 PM 39.9410 -105.8520 279° West 421 484 24,000 1,479 Climbing FlightAware ADS-B
Fri 03:03:15 PM 39.9500 -105.9330 278° West 425 489 24,800 1,588 Climbing FlightAware ADS-B
Fri 03:03:51 PM 39.9590 -106.0250 277° West 425 489 25,800 1,583 Climbing FlightAware ADS-B
Fri 03:04:27 PM 39.9690 -106.1170 278° West 426 490 26,700 1,397 Climbing FlightAware ADS-B
Fri 03:05:04 PM 39.9790 -106.2080 278° West 431 496 27,500 1,235 Climbing FlightAware ADS-B
Fri 03:05:35 PM 39.9870 -106.2910 277° West 437 503 28,100 1,099 Climbing FlightAware ADS-B
Fri 03:06:15 PM 39.9980 -106.3960 278° West 442 509 28,800 1,114 Climbing FlightAware ADS-B
Fri 03:06:45 PM 40.0080 -106.4770 279° West 447 514 29,400 1,147 Climbing FlightAware ADS-B
Fri 03:07:23 PM 40.0220 -106.5780 280° West 450 518 30,100 1,083 Climbing FlightAware ADS-B
Fri 03:07:57 PM 40.0350 -106.6670 281° West 452 520 30,700 1,075 Climbing FlightAware ADS-B
Fri 03:08:30 PM 40.0470 -106.7520 280° West 454 522 31,300 971 Climbing FlightAware ADS-B
Fri 03:09:05 PM 40.0610 -106.8480 281° West 457 526 31,800 904 Climbing FlightAware ADS-B
Fri 03:09:43 PM 40.0760 -106.9550 280° West 461 531 32,400 614 Climbing FlightAware ADS-B
Fri 03:10:33 PM 40.0930 -107.0770 280° West 464 534 32,700 857 Climbing FlightAware ADS-B
Fri 03:11:14 PM 40.1100 -107.1990 280° West 469 540 33,700 1,000 Climbing FlightAware ADS-B
Fri 03:11:57 PM 40.1230 -107.2940 280° West 471 542 34,100 1,050 Climbing FlightAware ADS-B
Fri 03:12:34 PM 40.1410 -107.4260 280° West 465 535 35,100 1,217 Climbing FlightAware ADS-B
Fri 03:13:06 PM 40.1530 -107.5150 280° West 467 537 35,500 667 Climbing FlightAware ADS-B
Fri 03:13:37 PM 40.1640 -107.5940 280° West 467 537 35,800 845 Climbing FlightAware ADS-B
Fri 03:14:17 PM 40.1790 -107.7030 280° West 463 533 36,500 1,037 Climbing FlightAware ADS-B
Fri 03:14:58 PM 40.1950 -107.8220 280° West 458 527 37,200 870 Climbing FlightAware ADS-B
Fri 03:15:26 PM 40.2040 -107.8930 279° West 458 527 37,500 716 Climbing FlightAware ADS-B
Fri 03:16:05 PM 40.2180 -108.0020 280° West 455 524 38,000 395 Climbing FlightAware ADS-B
Fri 03:16:42 PM 40.2290 -108.0860 280° West 456 525 38,000  Level FlightAware ADS-B
Fri 03:17:30 PM 40.2480 -108.2300 280° West 456 525 38,000  Level FlightAware ADS-B
Fri 03:18:06 PM 40.2580 -108.3100 279° West 456 525 38,000  Level FlightAware ADS-B
Fri 03:18:46 PM 40.2720 -108.4200 280° West 455 524 38,000  Level FlightAware ADS-B
Fri 03:19:31 PM 40.2910 -108.5640 280° West 454 522 38,000  Level FlightAware ADS-B
Fri 03:20:05 PM 40.3010 -108.6470 279° West 452 520 38,000  Level FlightAware ADS-B
Fri 03:20:40 PM 40.3130 -108.7400 280° West 452 520 38,000  Level FlightAware ADS-B
Fri 03:21:11 PM 40.3230 -108.8230 279° West 453 521 38,000  Level FlightAware ADS-B
Fri 03:21:48 PM 40.3360 -108.9280 279° West 453 521 38,000  Level FlightAware ADS-B
Fri 03:22:24 PM 40.3480 -109.0240 279° West 453 521 38,000  Level FlightAware ADS-B
Fri 03:22:59 PM 40.3580 -109.1110 279° West 452 520 38,000  Level FlightAware ADS-B
Fri 03:23:33 PM 40.3710 -109.2180 279° West 452 520 38,000  Level FlightAware ADS-B
Fri 03:24:13 PM 40.3830 -109.3160 279° West 451 519 38,000  Level FlightAware ADS-B
Fri 03:24:49 PM 40.3950 -109.4170 279° West 451 519 38,000  Level FlightAware ADS-B
Fri 03:25:25 PM 40.4060 -109.5150 278° West 450 518 38,000  Level FlightAware ADS-B
Fri 03:25:56 PM 40.4140 -109.5770 280° West 450 518 38,000  Level FlightAware ADS-B
Fri 03:26:46 PM 40.4260 -109.6920 278° West 450 518 38,000  Level FlightAware ADS-B
Fri 03:27:24 PM 40.4350 -109.7790 278° West 450 518 38,000  Level FlightAware ADS-B
Fri 03:28:01 PM 40.4440 -109.8640 278° West 450 518 38,000  Level FlightAware ADS-B
Fri 03:28:36 PM 40.4660 -110.0340 280° West 445 512 38,000  Level FlightAware ADS-B
Fri 03:29:14 PM 40.4780 -110.1360 279° West 443 510 38,000  Level FlightAware ADS-B
Fri 03:29:48 PM 40.4880 -110.2290 278° West 443 510 38,000  Level FlightAware ADS-B
Fri 03:30:18 PM 40.4970 -110.3090 278° West 442 509 38,000  Level FlightAware ADS-B
Fri 03:30:58 PM 40.5086 -110.4150 278° West 443 510 38,000  Level FlightAware ADS-B
Fri 03:31:28 PM 40.5173 -110.4950 278° West 441 507 38,000  Level FlightAware ADS-B
Fri 03:31:59 PM 40.5259 -110.5760 278° West 441 507 38,000  Level FlightAware ADS-B
Fri 03:32:29 PM 40.5346 -110.6550 278° West 441 507 38,000  Level FlightAware ADS-B
Fri 03:32:59 PM 40.5431 -110.7360 278° West 443 510 38,000  Level FlightAware ADS-B
Fri 03:33:30 PM 40.5518 -110.8180 278° West 444 511 38,000  Level FlightAware ADS-B
Fri 03:34:00 PM 40.5604 -110.9000 278° West 446 513 38,000  Level FlightAware ADS-B
Fri 03:34:34 PM 40.5699 -110.9900 278° West 445 512 38,000  Level FlightAware ADS-B
Fri 03:35:06 PM 40.5787 -111.0750 278° West 444 511 38,000  Level FlightAware ADS-B
Fri 03:35:37 PM 40.5871 -111.1570 278° West 445 512 38,000  Level FlightAware ADS-B
Fri 03:36:08 PM 40.5956 -111.2410 278° West 445 512 38,000  Level FlightAware ADS-B
Fri 03:36:38 PM 40.6038 -111.3210 278° West 444 511 38,000  Level FlightAware ADS-B
Fri 03:37:10 PM 40.6123 -111.4050 278° West 444 511 38,000  Level FlightAware ADS-B
Fri 03:37:40 PM 40.6203 -111.4860 277° West 443 510 38,000  Level FlightAware ADS-B
Fri 03:38:11 PM 40.6286 -111.5690 278° West 443 510 38,000  Level FlightAware ADS-B
Fri 03:38:41 PM 40.6366 -111.6500 277° West 443 510 38,000  Level FlightAware ADS-B
Fri 03:39:12 PM 40.6447 -111.7320 277° West 442 509 38,000  Level FlightAware ADS-B
Fri 03:39:44 PM 40.6527 -111.8150 277° West 441 507 38,000  Level FlightAware ADS-B
Fri 03:40:14 PM 40.6604 -111.8960 277° West 443 510 38,000  Level FlightAware ADS-B
Fri 03:40:45 PM 40.6685 -111.9800 277° West 443 510 38,000  Level FlightAware ADS-B
Fri 03:41:16 PM 40.6761 -112.0600 277° West 443 510 38,000  Level FlightAware ADS-B
Fri 03:41:47 PM 40.6842 -112.1460 277° West 444 511 38,000  Level FlightAware ADS-B
Fri 03:42:18 PM 40.6918 -112.2270 277° West 445 512 38,000  Level FlightAware ADS-B
Fri 03:42:48 PM 40.6993 -112.3080 277° West 445 512 38,000  Level FlightAware ADS-B
Fri 03:43:20 PM 40.7071 -112.3930 277° West 445 512 38,000  Level FlightAware ADS-B
Fri 03:43:50 PM 40.7146 -112.4750 277° West 444 511 38,000  Level FlightAware ADS-B
Fri 03:44:07 PM 40.7184 -112.5210 276° West 442 509 38,000  Level FlightAware ADS-B
Fri 03:44:30 PM 40.7264 -112.5810 280° West 445 512 38,000  Level FlightAware ADS-B
Fri 03:44:46 PM 40.7345 -112.6240 284° West 448 516 38,000  Level FlightAware ADS-B
Fri 03:45:05 PM 40.7453 -112.6740 286° West 447 514 38,000  Level FlightAware ADS-B
Fri 03:45:35 PM 40.7619 -112.7530 286° West 446 513 38,000  Level FlightAware ADS-B
Fri 03:46:06 PM 40.7785 -112.8320 286° West 448 516 38,000  Level FlightAware ADS-B
Fri 03:46:37 PM 40.7955 -112.9130 286° West 447 514 38,000  Level FlightAware ADS-B
Fri 03:47:07 PM 40.8121 -112.9930 285° West 446 513 38,000  Level FlightAware ADS-B
Fri 03:47:43 PM 40.8319 -113.0890 285° West 447 514 38,000  Level FlightAware ADS-B
Fri 03:48:14 PM 40.8483 -113.1680 285° West 447 514 38,000  Level FlightAware ADS-B
Fri 03:48:44 PM 40.8645 -113.2470 285° West 445 512 38,000  Level FlightAware ADS-B
Fri 03:49:16 PM 40.8815 -113.3300 285° West 442 509 38,000  Level FlightAware ADS-B
Fri 03:49:53 PM 40.9012 -113.4270 285° West 442 509 38,000  Level FlightAware ADS-B
Fri 03:50:23 PM 40.9170 -113.5050 285° West 441 507 38,000  Level FlightAware ADS-B
Fri 03:50:53 PM 40.9328 -113.5830 285° West 441 507 38,000  Level FlightAware ADS-B
Fri 03:51:23 PM 40.9488 -113.6620 285° West 442 509 38,000  Level FlightAware ADS-B
Fri 03:51:56 PM 40.9655 -113.7460 285° West 444 511 38,000  Level FlightAware ADS-B
Fri 03:52:26 PM 40.9814 -113.8250 285° West 443 510 38,000  Level FlightAware ADS-B
Fri 03:53:23 PM 41.0111 -113.9750 285° West 443 510 38,000  Level FlightAware ADS-B
Fri 03:53:53 PM 41.0267 -114.0540 285° West 442 509 38,000  Level FlightAware ADS-B
Fri 03:54:27 PM 41.0441 -114.1420 285° West 442 509 38,000  Level FlightAware ADS-B
Fri 03:55:08 PM 41.0650 -114.2490 285° West 443 510 38,000  Level FlightAware ADS-B
Fri 03:55:42 PM 41.0820 -114.3370 284° West 440 506 38,000  Level FlightAware ADS-B
Fri 03:56:18 PM 41.1010 -114.4320 285° West 443 510 38,000  Level FlightAware ADS-B
Fri 03:56:58 PM 41.1210 -114.5380 284° West 442 509 38,000  Level FlightAware ADS-B
Fri 03:57:10 PM 41.1273 -114.5700 285° West 443 510 38,000  Level FlightAware ADS-B
Fri 03:57:42 PM 41.1432 -114.6530 284° West 440 506 38,000  Level FlightAware ADS-B
Fri 03:58:12 PM 41.1581 -114.7320 284° West 443 510 38,000  Level FlightAware ADS-B
Fri 03:58:51 PM 41.1777 -114.8330 284° West 440 506 38,000  Level FlightAware ADS-B
Fri 03:59:24 PM 41.1940 -114.9210 284° West 439 505 38,000  Level FlightAware ADS-B
Fri 03:59:56 PM 41.2100 -115.0030 285° West 439 505 38,000  Level FlightAware ADS-B
Fri 04:00:32 PM 41.2270 -115.0970 284° West 438 504 38,000  Level FlightAware ADS-B
Fri 04:01:12 PM 41.2470 -115.2020 284° West 438 504 38,000  Level FlightAware ADS-B
Fri 04:01:43 PM 41.2615 -115.2820 284° West 440 506 38,000  Level FlightAware ADS-B
Fri 04:02:16 PM 41.2777 -115.3690 284° West 441 507 38,000  Level FlightAware ADS-B
Fri 04:02:47 PM 41.2926 -115.4500 284° West 443 510 38,000  Level FlightAware ADS-B
Fri 04:03:28 PM 41.3120 -115.5590 283° West 442 509 38,000  Level FlightAware ADS-B
Fri 04:04:02 PM 41.3290 -115.6490 284° West 443 510 38,000  Level FlightAware ADS-B
Fri 04:04:42 PM 41.3480 -115.7530 284° West 442 509 38,000  Level FlightAware ADS-B
Fri 04:05:18 PM 41.3650 -115.8500 283° West 441 507 38,000  Level FlightAware ADS-B
Fri 04:05:48 PM 41.3790 -115.9270 284° West 441 507 38,000  Level FlightAware ADS-B
Fri 04:06:20 PM 41.3940 -116.0120 283° West 442 509 38,000  Level FlightAware ADS-B
Fri 04:06:58 PM 41.4120 -116.1120 284° West 444 511 38,000  Level FlightAware ADS-B
Fri 04:07:36 PM 41.4300 -116.2130 283° West 440 506 38,000  Level FlightAware ADS-B
Fri 04:08:12 PM 41.4470 -116.3090 283° West 441 507 38,000  Level FlightAware ADS-B
Fri 04:08:46 PM 41.4620 -116.3980 283° West 441 507 38,000  Level FlightAware ADS-B
Fri 04:09:22 PM 41.4790 -116.4950 283° West 441 507 38,000  Level FlightAware ADS-B
Fri 04:09:54 PM 41.4930 -116.5790 283° West 442 509 38,000  Level FlightAware ADS-B
Fri 04:10:29 PM 41.5090 -116.6700 283° West 442 509 38,000  Level FlightAware ADS-B
Fri 04:11:06 PM 41.5260 -116.7690 283° West 442 509 38,000  Level FlightAware ADS-B
Fri 04:11:30 PM 41.5370 -116.8330 283° West 443 510 38,000  Level FlightAware ADS-B
Fri 04:12:21 PM 41.5590 -116.9660 283° West 443 510 38,000  Level FlightAware ADS-B
Fri 04:12:53 PM 41.5740 -117.0500 283° West 444 511 38,000  Level FlightAware ADS-B
Fri 04:13:30 PM 41.5910 -117.1530 282° West 443 510 38,000  Level FlightAware ADS-B
Fri 04:14:04 PM 41.6060 -117.2450 282° West 443 510 38,000  Level FlightAware ADS-B
Fri 04:14:40 PM 41.6220 -117.3390 283° West 442 509 38,000  Level FlightAware ADS-B
Fri 04:15:12 PM 41.6360 -117.4250 282° West 444 511 38,000  Level FlightAware ADS-B
Fri 04:15:48 PM 41.6510 -117.5210 282° West 440 506 38,000  Level FlightAware ADS-B
Fri 04:16:22 PM 41.6660 -117.6110 283° West 446 513 38,000  Level FlightAware ADS-B
Fri 04:16:58 PM 41.6820 -117.7100 282° West 444 511 38,000  Level FlightAware ADS-B
Fri 04:17:32 PM 41.6970 -117.8000 283° West 442 509 38,000  Level FlightAware ADS-B
Fri 04:18:06 PM 41.7110 -117.8890 282° West 440 506 38,000  Level FlightAware ADS-B
Fri 04:18:40 PM 41.7260 -117.9820 282° West 442 509 38,000  Level FlightAware ADS-B
Fri 04:19:18 PM 41.7410 -118.0810 282° West 443 510 38,000  Level FlightAware ADS-B
Fri 04:19:53 PM 41.7560 -118.1740 282° West 444 511 38,000  Level FlightAware ADS-B
Fri 04:20:30 PM 41.7720 -118.2750 282° West 443 510 38,000  Level FlightAware ADS-B
Fri 04:21:02 PM 41.7860 -118.3630 282° West 444 511 38,000  Level FlightAware ADS-B
Fri 04:21:34 PM 41.7990 -118.4470 282° West 445 512 38,000  Level FlightAware ADS-B
Fri 04:22:12 PM 41.8150 -118.5510 282° West 444 511 38,000  Level FlightAware ADS-B
Fri 04:22:49 PM 41.8290 -118.6460 281° West 440 506 38,000  Level FlightAware ADS-B
Fri 04:23:25 PM 41.8450 -118.7470 282° West 449 517 38,000  Level FlightAware ADS-B
Fri 04:23:58 PM 41.8570 -118.8310 281° West 445 512 38,000  Level FlightAware ADS-B
Fri 04:24:31 PM 41.8710 -118.9230 282° West 446 513 38,000  Level FlightAware ADS-B
Fri 04:25:07 PM 41.8860 -119.0190 282° West 454 522 38,000  Level FlightAware ADS-B
Fri 04:25:45 PM 41.9020 -119.1290 281° West 456 525 38,000  Level FlightAware ADS-B
Fri 04:26:25 PM 41.9180 -119.2400 281° West 456 525 38,000  Level FlightAware ADS-B
Fri 04:26:56 PM 41.9280 -119.3100 281° West 454 522 38,000  Level FlightAware ADS-B
Fri 04:27:32 PM 41.9440 -119.4130 282° West 454 522 38,000  Level FlightAware ADS-B
Fri 04:28:09 PM 41.9590 -119.5190 281° West 456 525 38,000  Level FlightAware ADS-B
Fri 04:28:44 PM 41.9720 -119.6130 281° West 456 525 38,000  Level FlightAware ADS-B
Fri 04:29:17 PM 41.9860 -119.7110 281° West 455 524 38,000  Level FlightAware ADS-B
Fri 04:29:53 PM 41.9990 -119.8020 281° West 455 524 38,000  Level FlightAware ADS-B
Fri 04:30:29 PM 42.0140 -119.9040 281° West 455 524 38,000  Level FlightAware ADS-B
Fri 04:31:05 PM 42.0280 -120.0080 280° West 455 524 38,000  Level FlightAware ADS-B
Fri 04:31:48 PM 42.0450 -120.1260 281° West 453 521 38,000  Level FlightAware ADS-B
Fri 04:32:16 PM 42.0560 -120.2040 281° West 452 520 38,000  Level FlightAware ADS-B
Fri 04:32:52 PM 42.0690 -120.3050 280° West 454 522 38,000  Level FlightAware ADS-B
Fri 04:33:32 PM 42.0850 -120.4150 281° West 456 525 38,000  Level FlightAware ADS-B
Fri 04:34:15 PM 42.1010 -120.5340 280° West 454 522 38,000  Level FlightAware ADS-B
Fri 04:34:49 PM 42.1130 -120.6240 280° West 453 521 38,000  Level FlightAware ADS-B
Fri 04:35:20 PM 42.1240 -120.7100 280° West 454 522 38,000  Level FlightAware ADS-B
Fri 04:36:01 PM 42.1400 -120.8290 280° West 454 522 38,000  Level FlightAware ADS-B
Fri 04:36:31 PM 42.1510 -120.9140 280° West 454 522 38,000  Level FlightAware ADS-B
Fri 04:37:08 PM 42.1640 -121.0120 280° West 453 521 38,000  Level FlightAware ADS-B
Fri 04:37:41 PM 42.1760 -121.1020 280° West 454 522 38,000  Level FlightAware ADS-B
Fri 04:38:22 PM 42.1910 -121.2200 280° West 455 524 38,000  Level FlightAware ADS-B
Fri 04:39:05 PM 42.2040 -121.3200 280° West 455 524 38,000  Level FlightAware ADS-B
Fri 04:39:38 PM 42.2180 -121.4330 280° West 454 522 38,000  Level FlightAware ADS-B
Fri 04:40:15 PM 42.2310 -121.5330 280° West 454 522 38,000  Level FlightAware ADS-B
Fri 04:41:27 PM 42.2560 -121.7360 280° West 455 524 38,000  Level FlightAware ADS-B
Fri 04:42:15 PM 42.2730 -121.8700 280° West 454 522 38,000  Level FlightAware ADS-B
Fri 04:42:50 PM 42.2850 -121.9720 279° West 452 520 38,000  Level FlightAware ADS-B
Fri 04:43:26 PM 42.2850 -121.9720 279° West 453 521 38,000  Level FlightAware ADS-B
Fri 04:44:04 PM 42.3090 -122.1690 279° West 452 520 38,000  Level FlightAware ADS-B
Fri 04:45:01 PM 42.3260 -122.3140 279° West 454 522 38,000  Level FlightAware ADS-B
Fri 04:45:31 PM 42.3380 -122.4140 279° West 456 525 38,000  Level FlightAware ADS-B
Fri 04:46:15 PM 42.3520 -122.5330 279° West 457 526 38,000  Level FlightAware ADS-B
Fri 04:46:47 PM 42.3630 -122.6240 279° West 456 525 38,000  Level FlightAware ADS-B
Fri 04:47:23 PM 42.3750 -122.7290 279° West 455 524 38,000  Level FlightAware ADS-B
Fri 04:48:00 PM 42.3870 -122.8340 279° West 454 522 38,000  Level FlightAware ADS-B
Fri 04:48:34 PM 42.3970 -122.9280 278° West 454 522 38,000  Level FlightAware ADS-B
Fri 04:49:10 PM 42.4080 -123.0260 279° West 455 524 38,000  Level FlightAware ADS-B
Fri 04:49:46 PM 42.4200 -123.1330 279° West 456 525 38,000  Level FlightAware ADS-B
Fri 04:50:17 PM 42.4290 -123.2080 279° West 456 525 38,000  Level FlightAware ADS-B
Fri 04:51:13 PM 42.4350 -123.2710 277° West 455 524 38,000  Level FlightAware ADS-B
Fri 04:51:59 PM 42.4470 -123.3810 278° West 455 524 38,000  Level FlightAware ADS-B
Fri 04:52:35 PM 42.4560 -123.4680 278° West 455 524 38,000  Level FlightAware ADS-B
Fri 04:53:11 PM 42.4640 -123.5540 277° West 455 524 38,000  Level FlightAware ADS-B
Fri 04:53:47 PM 42.4730 -123.6410 278° West 455 524 38,000  Level FlightAware ADS-B
Fri 04:54:23 PM 42.4820 -123.7270 278° West 455 524 38,000  Level FlightAware ADS-B
Fri 04:54:59 PM 42.4910 -123.8140 278° West 455 524 38,000  Level FlightAware ADS-B
Fri 04:55:36 PM 42.5010 -123.9020 279° West 455 524 38,000  Level FlightAware ADS-B
Fri 04:56:14 PM 42.5100 -123.9940 278° West 455 524 38,000  Level FlightAware ADS-B
Fri 04:56:51 PM 42.5190 -124.0830 278° West 455 524 38,000  Level FlightAware ADS-B
Fri 04:57:27 PM 42.5280 -124.1690 278° West 455 524 38,000  Level FlightAware ADS-B
Fri 04:58:03 PM 42.5370 -124.2560 278° West 455 524 38,000  Level FlightAware ADS-B
Fri 04:58:40 PM 42.5460 -124.3450 278° West 455 524 38,000  Level FlightAware ADS-B
Fri 04:59:17 PM 42.5560 -124.4340 279° West 455 524 38,000  Level FlightAware ADS-B
Fri 04:59:53 PM 42.5640 -124.5200 277° West 455 524 38,000  Level FlightAware ADS-B
Fri 05:00:30 PM 42.5740 -124.6090 279° West 455 524 38,000  Level FlightAware ADS-B
Fri 05:01:04 PM 42.6170 -125.0510 278° West 457 526 38,000  Level FlightAware ADS-B
Fri 05:01:38 PM 42.6250 -125.1450 277° West 457 526 38,000  Level FlightAware ADS-B
Fri 05:02:25 PM 42.6360 -125.2650 277° West 457 526 38,000  Level FlightAware ADS-B
Fri 05:03:01 PM 42.6440 -125.3530 277° West 457 526 38,000  Level FlightAware ADS-B
Fri 05:03:39 PM 42.6520 -125.4450 277° West 457 526 38,000  Level FlightAware ADS-B
Fri 05:04:15 PM 42.6600 -125.5320 277° West 457 526 38,000  Level FlightAware ADS-B
Fri 05:04:53 PM 42.6690 -125.6240 278° West 457 526 38,000  Level FlightAware ADS-B
Fri 05:05:28 PM 42.6760 -125.7090 276° West 457 526 38,000  Level FlightAware ADS-B
Fri 05:06:03 PM 42.6840 -125.7940 277° West 457 526 38,000  Level FlightAware ADS-B
Fri 05:06:39 PM 42.6920 -125.8820 277° West 457 526 38,000  Level FlightAware ADS-B
Fri 05:07:15 PM 42.7000 -125.9690 277° West 457 526 38,000  Level FlightAware ADS-B
Fri 05:07:51 PM 42.7080 -126.0560 277° West 457 526 38,000  Level FlightAware ADS-B
Fri 05:08:28 PM 42.7160 -126.1460 277° West 457 526 38,000  Level FlightAware ADS-B
Fri 05:09:16 PM 42.7260 -126.2630 277° West 457 526 38,000  Level FlightAware ADS-B
Fri 05:09:50 PM 42.7340 -126.3450 278° West 457 526 38,000  Level FlightAware ADS-B
Fri 05:10:26 PM 42.7420 -126.4330 277° West 457 526 38,000  Level FlightAware ADS-B
Fri 05:11:02 PM 42.7490 -126.5200 276° West 457 526 38,000  Level FlightAware ADS-B
Fri 05:11:20 PM 42.9167 -126.7167 298° West 459 528 38,000  Level Oakland Oceanic (ODAPS)
Fri 05:11:48 PM 42.9500 -126.8000 298° West 459 528 38,000  Level Oakland Oceanic (ODAPS)
Fri 05:19:00 PM 43.3625 -127.9004 297° West 459 528 38,000  Level FlightAware Transoceanic
Fri 05:20:00 PM 43.4206 -128.0588 297° West 459 528 38,000  Level FlightAware Transoceanic
Fri 05:21:00 PM 43.4784 -128.2175 297° West 459 528 38,000  Level FlightAware Transoceanic
Fri 05:22:00 PM 43.5360 -128.3765 296° West 459 528 38,000  Level FlightAware Transoceanic
Fri 05:23:00 PM 43.5934 -128.5358 296° West 459 528 38,000  Level FlightAware Transoceanic
Fri 05:24:00 PM 43.6506 -128.6954 296° West 459 528 38,000  Level FlightAware Transoceanic
Fri 05:25:00 PM 43.7076 -128.8554 296° West 459 528 38,000  Level FlightAware Transoceanic
Fri 05:25:44 PM 43.7333 -128.9500 297° West 455 524 38,000  Level Oakland Oceanic (ODAPS)
Fri 05:26:00 PM 43.7643 -129.0156 296° West 459 528 38,000  Level FlightAware Transoceanic
Fri 05:27:00 PM 43.8208 -129.1761 296° West 459 528 38,000  Level FlightAware Transoceanic
Fri 05:28:00 PM 43.8771 -129.3369 296° West 459 528 38,000  Level FlightAware Transoceanic
Fri 05:29:00 PM 43.9332 -129.4981 296° West 459 528 38,000  Level FlightAware Transoceanic
Fri 05:30:00 PM 43.9890 -129.6595 296° West 459 528 38,000  Level FlightAware Transoceanic
Fri 05:31:00 PM 44.0446 -129.8213 295° West 459 528 38,000  Level FlightAware Transoceanic
Fri 05:32:00 PM 44.1000 -129.9833 296° West 455 524 38,000  Level FlightAware Transoceanic
Fri 05:32:22 PM 44.1000 -129.9833 296° West 450 518 38,000  Level Oakland Oceanic (ODAPS)
Fri 05:33:00 PM 44.1562 -130.1444 296° West 455 524 38,000  Level FlightAware Transoceanic
Fri 05:34:00 PM 44.2122 -130.3057 296° West 455 524 38,000  Level FlightAware Transoceanic
Fri 05:35:00 PM 44.2679 -130.4674 296° West 455 524 38,000  Level FlightAware Transoceanic
Fri 05:36:00 PM 44.3235 -130.6293 296° West 455 524 38,000  Level FlightAware Transoceanic
Fri 05:36:25 PM 44.3167 -130.6167 296° West 452 520 38,000  Level Oakland Oceanic (ODAPS)
Fri 05:37:00 PM 44.3788 -130.7916 295° West 455 524 38,000  Level FlightAware Transoceanic
Fri 05:38:00 PM 44.4230 -130.9221 295° West 450 518 38,000  Level FlightAware Transoceanic
Fri 05:39:00 PM 44.4761 -131.0796 295° West 450 518 38,000  Level FlightAware Transoceanic
Fri 05:39:36 PM 44.4833 -131.1333 295° West 456 525 38,000  Level Oakland Oceanic (ODAPS)
Fri 05:40:00 PM 44.5290 -131.2374 295° West 450 518 38,000  Level FlightAware Transoceanic
Fri 05:41:00 PM 44.5816 -131.3954 295° West 450 518 38,000  Level FlightAware Transoceanic
Fri 05:42:00 PM 44.6344 -131.5615 295° West 452 520 38,000  Level FlightAware Transoceanic
Fri 05:43:00 PM 44.6866 -131.7200 295° West 452 520 38,000  Level FlightAware Transoceanic
Fri 05:44:00 PM 44.7386 -131.8787 295° West 452 520 38,000  Level FlightAware Transoceanic
Fri 05:45:00 PM 44.8019 -132.0965 295° West 456 525 38,000  Level FlightAware Transoceanic
Fri 05:46:00 PM 44.8542 -132.2580 294° West 456 525 38,000  Level FlightAware Transoceanic
Fri 05:47:00 PM 44.9063 -132.4199 294° West 456 525 38,000  Level FlightAware Transoceanic
Fri 05:48:00 PM 44.9581 -132.5820 294° West 456 525 38,000  Level FlightAware Transoceanic
Fri 05:49:00 PM 45.0097 -132.7444 294° West 456 525 38,000  Level FlightAware Transoceanic
Fri 05:50:00 PM 45.0611 -132.9072 294° West 456 525 38,000  Level FlightAware Transoceanic
Fri 05:51:00 PM 45.1123 -133.0702 294° West 456 525 38,000  Level FlightAware Transoceanic
Fri 05:52:00 PM 45.1632 -133.2335 294° West 456 525 38,000  Level FlightAware Transoceanic
Fri 05:53:00 PM 45.2139 -133.3971 294° West 456 525 38,000 674 Level FlightAware Transoceanic
Fri 05:53:29 PM 45.2167 -133.3667 294° West 451 519 39,000  Climbing Oakland Oceanic (ODAPS)
Fri 05:54:00 PM 45.2643 -133.5610 294° West 456 525 38,000 -659 Descending FlightAware Transoceanic
Fri 05:55:00 PM 45.3145 -133.7252 293° West 456 525 38,000  Level FlightAware Transoceanic
Fri 05:56:00 PM 45.3645 -133.8896 293° West 456 525 38,000  Level FlightAware Transoceanic
Fri 05:57:00 PM 45.4143 -134.0544 293° West 456 525 38,000  Level FlightAware Transoceanic
Fri 05:58:00 PM 45.4638 -134.2195 293° West 456 525 38,000 500 Level FlightAware Transoceanic
Fri 05:59:00 PM 45.5083 -134.3340 293° West 451 519 39,000 500 Climbing FlightAware Transoceanic
Fri 06:00:00 PM 45.5561 -134.4962 293° West 451 519 39,000  Level FlightAware Transoceanic
Fri 06:01:00 PM 45.6036 -134.6587 293° West 451 519 39,000  Level FlightAware Transoceanic
Fri 06:02:00 PM 45.6510 -134.8214 293° West 451 519 39,000  Level FlightAware Transoceanic
Fri 06:03:00 PM 45.6981 -134.9844 292° West 451 519 39,000  Level FlightAware Transoceanic
Fri 06:04:00 PM 45.7450 -135.1477 292° West 451 519 39,000  Level FlightAware Transoceanic
Fri 06:05:00 PM 45.7916 -135.3113 292° West 451 519 39,000  Level FlightAware Transoceanic
Fri 06:06:00 PM 45.8380 -135.4751 292° West 451 519 39,000  Level FlightAware Transoceanic
Fri 06:07:00 PM 45.8842 -135.6392 292° West 451 519 39,000  Level FlightAware Transoceanic
Fri 06:07:21 PM 45.8833 -135.6667 292° West 464 534 39,000  Level Oakland Oceanic (ODAPS)
Fri 06:08:00 PM 45.9301 -135.8036 292° West 451 519 39,000  Level FlightAware Transoceanic
Fri 06:09:00 PM 45.9759 -135.9683 292° West 451 519 39,000  Level FlightAware Transoceanic
Fri 06:10:00 PM 46.0213 -136.1332 292° West 451 519 39,000  Level FlightAware Transoceanic
Fri 06:11:00 PM 46.0666 -136.2984 291° West 451 519 39,000  Level FlightAware Transoceanic
Fri 06:12:00 PM 46.1115 -136.4639 291° West 451 519 39,000  Level FlightAware Transoceanic
Fri 06:13:00 PM 46.1662 -136.6904 291° West 464 534 39,000  Level FlightAware Transoceanic
Fri 06:14:00 PM 46.2124 -136.8620 291° West 464 534 39,000  Level FlightAware Transoceanic
Fri 06:15:00 PM 46.2584 -137.0339 291° West 464 534 39,000  Level FlightAware Transoceanic
Fri 06:16:00 PM 46.3041 -137.2061 291° West 464 534 39,000  Level FlightAware Transoceanic
Fri 06:17:00 PM 46.3496 -137.3786 291° West 464 534 39,000  Level FlightAware Transoceanic
Fri 06:18:00 PM 46.3948 -137.5514 291° West 464 534 39,000  Level FlightAware Transoceanic
Fri 06:19:00 PM 46.4398 -137.7245 291° West 464 534 39,000  Level FlightAware Transoceanic
Fri 06:20:00 PM 46.4844 -137.8978 290° West 464 534 39,000  Level FlightAware Transoceanic
Fri 06:21:00 PM 46.5289 -138.0715 290° West 464 534 39,000  Level FlightAware Transoceanic
Fri 06:21:13 PM 46.5167 -138.0500 291° West 465 535 39,000  Level Oakland Oceanic (ODAPS)
Fri 06:22:00 PM 46.5730 -138.2454 290° West 464 534 39,000  Level FlightAware Transoceanic
Fri 06:23:00 PM 46.6169 -138.4196 290° West 464 534 39,000  Level FlightAware Transoceanic
Fri 06:24:00 PM 46.6606 -138.5941 290° West 464 534 39,000  Level FlightAware Transoceanic
Fri 06:25:00 PM 46.7039 -138.7688 290° West 464 534 39,000  Level FlightAware Transoceanic
Fri 06:26:00 PM 46.7470 -138.9439 290° West 464 534 39,000  Level FlightAware Transoceanic
Fri 06:27:00 PM 46.7844 -139.1093 290° West 465 535 39,000  Level FlightAware Transoceanic
Fri 06:28:00 PM 46.8281 -139.2869 290° West 465 535 39,000  Level FlightAware Transoceanic
Fri 06:29:00 PM 46.8715 -139.4647 290° West 465 535 39,000  Level FlightAware Transoceanic
Fri 06:30:00 PM 46.9146 -139.6429 289° West 465 535 39,000  Level FlightAware Transoceanic
Fri 06:31:00 PM 46.9574 -139.8213 289° West 465 535 39,000  Level FlightAware Transoceanic
Fri 06:32:00 PM 47.0000 -140.0000 274° West 465 535 39,000  Level FlightAware Transoceanic
Fri 06:32:27 PM 47.0000 -140.0000 274° West 467 537 39,000  Level Oakland Oceanic (ODAPS)
Fri 06:33:00 PM 47.0081 -140.1882 274° West 465 535 39,000  Level FlightAware Transoceanic
Fri 06:34:00 PM 47.0158 -140.3764 273° West 465 535 39,000  Level FlightAware Transoceanic
Fri 06:35:00 PM 47.0233 -140.5647 273° West 465 535 39,000  Level FlightAware Transoceanic
Fri 06:35:05 PM 47.0167 -140.5500 273° West 476 548 39,000  Level Oakland Oceanic (ODAPS)
Fri 06:36:00 PM 47.0304 -140.7531 273° West 465 535 39,000  Level FlightAware Transoceanic
Fri 06:37:00 PM 47.0372 -140.9415 273° West 465 535 39,000  Level FlightAware Transoceanic
Fri 06:38:00 PM 47.0437 -141.1300 273° West 467 537 39,000  Level FlightAware Transoceanic
Fri 06:39:00 PM 47.0499 -141.3185 273° West 467 537 39,000  Level FlightAware Transoceanic
Fri 06:40:00 PM 47.0558 -141.5070 273° West 467 537 39,000  Level FlightAware Transoceanic
Fri 06:41:00 PM 47.0564 -141.7056 272° West 476 548 39,000  Level FlightAware Transoceanic
Fri 06:42:00 PM 47.0619 -141.8983 272° West 476 548 39,000  Level FlightAware Transoceanic
Fri 06:43:00 PM 47.0671 -142.0912 272° West 476 548 39,000  Level FlightAware Transoceanic
Fri 06:44:00 PM 47.0719 -142.2840 272° West 476 548 39,000  Level FlightAware Transoceanic
Fri 06:45:00 PM 47.0765 -142.4768 272° West 476 548 39,000  Level FlightAware Transoceanic
Fri 06:46:00 PM 47.0807 -142.6697 272° West 476 548 39,000  Level FlightAware Transoceanic
Fri 06:47:00 PM 47.0845 -142.8627 272° West 476 548 39,000  Level FlightAware Transoceanic
Fri 06:48:00 PM 47.0881 -143.0556 271° West 476 548 39,000  Level FlightAware Transoceanic
Fri 06:48:56 PM 47.1000 -143.2500 271° West 479 551 39,000  Level Oakland Oceanic (ODAPS)
Fri 06:49:00 PM 47.0913 -143.2486 271° West 476 548 39,000  Level FlightAware Transoceanic
Fri 06:50:00 PM 47.0942 -143.4416 271° West 476 548 39,000  Level FlightAware Transoceanic
Fri 06:51:00 PM 47.0968 -143.6346 271° West 476 548 39,000  Level FlightAware Transoceanic
Fri 06:52:00 PM 47.0990 -143.8276 271° West 476 548 39,000  Level FlightAware Transoceanic
Fri 06:53:00 PM 47.1010 -144.0207 271° West 476 548 39,000  Level FlightAware Transoceanic
Fri 06:54:00 PM 47.1026 -144.2138 271° West 476 548 39,000  Level FlightAware Transoceanic
Fri 06:55:00 PM 47.1112 -144.4422 270° West 479 551 39,000  Level FlightAware Transoceanic
Fri 06:56:00 PM 47.1119 -144.6410 270° West 479 551 39,000  Level FlightAware Transoceanic
Fri 06:57:00 PM 47.1122 -144.8397 270° West 479 551 39,000  Level FlightAware Transoceanic
Fri 06:58:00 PM 47.1122 -145.0385 270° West 479 551 39,000  Level FlightAware Transoceanic
Fri 06:59:00 PM 47.1118 -145.2372 270° West 479 551 39,000  Level FlightAware Transoceanic
Fri 07:00:00 PM 47.1111 -145.4359 270° West 479 551 39,000  Level FlightAware Transoceanic
Fri 07:01:00 PM 47.1100 -145.6347 269° West 479 551 39,000  Level FlightAware Transoceanic
Fri 07:02:00 PM 47.1086 -145.8334 269° West 479 551 39,000  Level FlightAware Transoceanic
Fri 07:02:51 PM 47.1000 -145.9667 269° West 485 558 39,000  Level Oakland Oceanic (ODAPS)
Fri 07:03:00 PM 47.1069 -146.0321 269° West 479 551 39,000  Level FlightAware Transoceanic
Fri 07:04:00 PM 47.1048 -146.2308 269° West 479 551 39,000  Level FlightAware Transoceanic
Fri 07:05:00 PM 47.1024 -146.4295 269° West 479 551 39,000  Level FlightAware Transoceanic
Fri 07:06:00 PM 47.0996 -146.6282 269° West 479 551 39,000  Level FlightAware Transoceanic
Fri 07:07:00 PM 47.0965 -146.8268 269° West 479 551 39,000  Level FlightAware Transoceanic
Fri 07:08:00 PM 47.0930 -147.0254 268° West 479 551 39,000  Level FlightAware Transoceanic
Fri 07:09:00 PM 47.0849 -147.1781 269° West 485 558 39,000  Level FlightAware Transoceanic
Fri 07:10:00 PM 47.0811 -147.3799 268° West 485 558 39,000  Level FlightAware Transoceanic
Fri 07:11:00 PM 47.0770 -147.5817 268° West 485 558 39,000  Level FlightAware Transoceanic
Fri 07:12:00 PM 47.0725 -147.7835 268° West 485 558 39,000  Level FlightAware Transoceanic
Fri 07:13:00 PM 47.0677 -147.9852 268° West 485 558 39,000  Level FlightAware Transoceanic
Fri 07:14:00 PM 47.0625 -148.1869 268° West 485 558 39,000  Level FlightAware Transoceanic
Fri 07:15:00 PM 47.0570 -148.3886 268° West 485 558 39,000  Level FlightAware Transoceanic
Fri 07:16:00 PM 47.0511 -148.5902 267° West 485 558 39,000  Level FlightAware Transoceanic
Fri 07:16:40 PM 47.0500 -148.7000 267° West 479 551 39,000  Level Oakland Oceanic (ODAPS)
Fri 07:17:00 PM 47.0449 -148.7917 267° West 485 558 39,000  Level FlightAware Transoceanic
Fri 07:18:00 PM 47.0383 -148.9933 267° West 485 558 39,000  Level FlightAware Transoceanic
Fri 07:19:00 PM 47.0313 -149.1947 267° West 485 558 39,000  Level FlightAware Transoceanic
Fri 07:20:00 PM 47.0240 -149.3961 267° West 485 558 39,000  Level FlightAware Transoceanic
Fri 07:21:00 PM 47.0164 -149.5975 267° West 485 558 39,000  Level FlightAware Transoceanic
Fri 07:22:00 PM 47.0084 -149.7988 267° West 485 558 39,000  Level FlightAware Transoceanic
Fri 07:23:00 PM 47.0000 -150.0000 258° West 479 551 39,000  Level FlightAware Transoceanic
Fri 07:23:22 PM 47.0000 -150.0000 258° West 491 565 39,000  Level Oakland Oceanic (ODAPS)
Fri 07:24:00 PM 46.9705 -150.1950 257° West 479 551 39,000  Level FlightAware Transoceanic
Fri 07:25:00 PM 46.9407 -150.3899 257° West 479 551 39,000  Level FlightAware Transoceanic
Fri 07:26:00 PM 46.9106 -150.5845 257° West 479 551 39,000  Level FlightAware Transoceanic
Fri 07:27:00 PM 46.8801 -150.7789 257° West 479 551 39,000  Level FlightAware Transoceanic
Fri 07:28:00 PM 46.8493 -150.9730 257° West 479 551 39,000  Level FlightAware Transoceanic
Fri 07:29:00 PM 46.8182 -151.1670 257° West 491 565 39,000  Level FlightAware Transoceanic
Fri 07:30:00 PM 46.7867 -151.3607 257° West 491 565 39,000  Level FlightAware Transoceanic
Fri 07:30:33 PM 46.7833 -151.3500 257° West 484 557 39,000  Level Oakland Oceanic (ODAPS)
Fri 07:31:00 PM 46.7550 -151.5542 256° West 491 565 39,000  Level FlightAware Transoceanic
Fri 07:32:00 PM 46.7229 -151.7475 256° West 491 565 39,000  Level FlightAware Transoceanic
Fri 07:33:00 PM 46.6904 -151.9405 256° West 491 565 39,000  Level FlightAware Transoceanic
Fri 07:34:00 PM 46.6577 -152.1333 256° West 491 565 39,000  Level FlightAware Transoceanic
Fri 07:35:00 PM 46.6246 -152.3258 256° West 491 565 39,000  Level FlightAware Transoceanic
Fri 07:36:00 PM 46.5912 -152.5182 256° West 491 565 39,000  Level FlightAware Transoceanic
Fri 07:37:00 PM 46.5597 -152.6725 256° West 484 557 39,000  Level FlightAware Transoceanic
Fri 07:38:00 PM 46.5265 -152.8605 256° West 484 557 39,000  Level FlightAware Transoceanic
Fri 07:39:00 PM 46.4930 -153.0484 255° West 484 557 39,000  Level FlightAware Transoceanic
Fri 07:40:00 PM 46.4593 -153.2359 255° West 484 557 39,000  Level FlightAware Transoceanic
Fri 07:41:00 PM 46.4251 -153.4232 255° West 484 557 39,000  Level FlightAware Transoceanic
Fri 07:42:00 PM 46.3907 -153.6104 255° West 484 557 39,000  Level FlightAware Transoceanic
Fri 07:43:00 PM 46.3560 -153.7972 255° West 484 557 39,000  Level FlightAware Transoceanic
Fri 07:44:00 PM 46.3210 -153.9838 255° West 484 557 39,000  Level FlightAware Transoceanic
Fri 07:44:24 PM 46.3333 -153.9333 255° West 482 555 39,000  Level Oakland Oceanic (ODAPS)
Fri 07:45:00 PM 46.2857 -154.1702 255° West 484 557 39,000  Level FlightAware Transoceanic
Fri 07:46:00 PM 46.2500 -154.3564 254° West 484 557 39,000  Level FlightAware Transoceanic
Fri 07:47:00 PM 46.2141 -154.5423 254° West 484 557 39,000  Level FlightAware Transoceanic
Fri 07:48:00 PM 46.1779 -154.7279 254° West 484 557 39,000  Level FlightAware Transoceanic
Fri 07:49:00 PM 46.1414 -154.9133 254° West 484 557 39,000  Level FlightAware Transoceanic
Fri 07:50:00 PM 46.1216 -155.0246 254° West 482 555 39,000  Level FlightAware Transoceanic
Fri 07:51:00 PM 46.0853 -155.2056 254° West 482 555 39,000  Level FlightAware Transoceanic
Fri 07:52:00 PM 46.0487 -155.3865 254° West 482 555 39,000  Level FlightAware Transoceanic
Fri 07:53:00 PM 46.0119 -155.5670 254° West 482 555 39,000  Level FlightAware Transoceanic
Fri 07:54:00 PM 45.9747 -155.7474 253° West 482 555 39,000  Level FlightAware Transoceanic
Fri 07:55:00 PM 45.9373 -155.9275 253° West 482 555 39,000  Level FlightAware Transoceanic
Fri 07:56:00 PM 45.8996 -156.1073 253° West 482 555 39,000  Level FlightAware Transoceanic
Fri 07:57:00 PM 45.8616 -156.2869 253° West 482 555 39,000  Level FlightAware Transoceanic
Fri 07:58:00 PM 45.8233 -156.4662 253° West 482 555 39,000  Level FlightAware Transoceanic
Fri 07:58:18 PM 45.8167 -156.5000 253° West 478 550 39,000  Level Oakland Oceanic (ODAPS)
Fri 07:59:00 PM 45.7848 -156.6454 253° West 482 555 39,000  Level FlightAware Transoceanic
Fri 08:00:00 PM 45.7459 -156.8242 253° West 482 555 39,000  Level FlightAware Transoceanic
Fri 08:01:00 PM 45.7068 -157.0028 253° West 482 555 39,000  Level FlightAware Transoceanic
Fri 08:02:00 PM 45.6674 -157.1812 252° West 482 555 39,000  Level FlightAware Transoceanic
Fri 08:03:00 PM 45.6278 -157.3593 252° West 482 555 39,000  Level FlightAware Transoceanic
Fri 08:04:00 PM 45.5829 -157.5606 252° West 478 550 39,000  Level FlightAware Transoceanic
Fri 08:05:00 PM 45.5430 -157.7365 252° West 478 550 39,000  Level FlightAware Transoceanic
Fri 08:06:00 PM 45.5028 -157.9121 252° West 478 550 39,000  Level FlightAware Transoceanic
Fri 08:07:00 PM 45.4624 -158.0875 252° West 478 550 39,000  Level FlightAware Transoceanic
Fri 08:08:00 PM 45.4217 -158.2627 252° West 478 550 39,000  Level FlightAware Transoceanic
Fri 08:09:00 PM 45.3807 -158.4375 251° West 478 550 39,000  Level FlightAware Transoceanic
Fri 08:10:00 PM 45.3395 -158.6122 251° West 478 550 39,000  Level FlightAware Transoceanic
Fri 08:11:00 PM 45.2980 -158.7866 251° West 478 550 39,000  Level FlightAware Transoceanic
Fri 08:12:00 PM 45.2562 -158.9607 251° West 478 550 39,000 870 Level FlightAware Transoceanic
Fri 08:12:09 PM 45.2500 -158.9833 251° West 475 547 40,000  Climbing Oakland Oceanic (ODAPS)
Fri 08:13:00 PM 45.2141 -159.1346 251° West 478 550 39,000 -541 Descending FlightAware Transoceanic
Fri 08:14:00 PM 45.1718 -159.3082 251° West 478 550 39,000  Level FlightAware Transoceanic
Fri 08:15:00 PM 45.1293 -159.4815 251° West 478 550 39,000  Level FlightAware Transoceanic
Fri 08:16:00 PM 45.0864 -159.6546 251° West 478 550 39,000  Level FlightAware Transoceanic
Fri 08:17:00 PM 45.0434 -159.8274 250° West 478 550 39,000 541 Level FlightAware Transoceanic
Fri 08:17:51 PM 45.0000 -160.0000 266° West 479 551 40,000 1,000 Climbing Oakland Oceanic (ODAPS)
Fri 08:18:00 PM 45.0000 -160.0000 266° West 475 547 40,000  Level FlightAware Transoceanic
Fri 08:19:00 PM 44.9891 -160.1951 265° West 475 547 40,000  Level FlightAware Transoceanic
Fri 08:20:00 PM 44.9779 -160.3902 265° West 475 547 40,000  Level FlightAware Transoceanic
Fri 08:21:00 PM 44.9663 -160.5851 265° West 475 547 40,000  Level FlightAware Transoceanic
Fri 08:22:00 PM 44.9544 -160.7800 265° West 475 547 40,000  Level FlightAware Transoceanic
Fri 08:23:00 PM 44.9421 -160.9748 265° West 475 547 40,000  Level FlightAware Transoceanic
Fri 08:24:00 PM 44.9324 -161.1263 265° West 479 551 40,000  Level FlightAware Transoceanic
Fri 08:25:00 PM 44.9200 -161.3137 265° West 479 551 40,000  Level FlightAware Transoceanic
Fri 08:26:00 PM 44.9074 -161.5011 264° West 479 551 40,000  Level FlightAware Transoceanic
Fri 08:26:02 PM 44.9000 -161.5167 265° West 482 555 40,000  Level Oakland Oceanic (ODAPS)
Fri 08:27:00 PM 44.8944 -161.6884 264° West 479 551 40,000  Level FlightAware Transoceanic
Fri 08:28:00 PM 44.8812 -161.8756 264° West 479 551 40,000  Level FlightAware Transoceanic
Fri 08:29:00 PM 44.8676 -162.0627 264° West 479 551 40,000  Level FlightAware Transoceanic
Fri 08:30:00 PM 44.8537 -162.2497 264° West 479 551 40,000  Level FlightAware Transoceanic
Fri 08:31:00 PM 44.8396 -162.4366 264° West 479 551 40,000  Level FlightAware Transoceanic
Fri 08:32:00 PM 44.8185 -162.6369 264° West 482 555 40,000  Level FlightAware Transoceanic
Fri 08:33:00 PM 44.8039 -162.8232 264° West 482 555 40,000  Level FlightAware Transoceanic
Fri 08:34:00 PM 44.7889 -163.0095 263° West 482 555 40,000  Level FlightAware Transoceanic
Fri 08:35:00 PM 44.7737 -163.1957 263° West 482 555 40,000  Level FlightAware Transoceanic
Fri 08:36:00 PM 44.7581 -163.3818 263° West 482 555 40,000  Level FlightAware Transoceanic
Fri 08:37:00 PM 44.7422 -163.5678 263° West 482 555 40,000  Level FlightAware Transoceanic
Fri 08:38:00 PM 44.7261 -163.7537 263° West 482 555 40,000  Level FlightAware Transoceanic
Fri 08:39:00 PM 44.7096 -163.9394 263° West 482 555 40,000  Level FlightAware Transoceanic
Fri 08:39:53 PM 44.7000 -164.1000 263° West 483 556 40,000  Level Oakland Oceanic (ODAPS)
Fri 08:40:00 PM 44.6929 -164.1251 263° West 482 555 40,000  Level FlightAware Transoceanic
Fri 08:41:00 PM 44.6758 -164.3107 263° West 482 555 40,000  Level FlightAware Transoceanic
Fri 08:42:00 PM 44.6585 -164.4961 262° West 482 555 40,000  Level FlightAware Transoceanic
Fri 08:43:00 PM 44.6408 -164.6815 262° West 482 555 40,000  Level FlightAware Transoceanic
Fri 08:44:00 PM 44.6228 -164.8667 262° West 482 555 40,000  Level FlightAware Transoceanic
Fri 08:45:00 PM 44.6046 -165.0518 262° West 482 555 40,000  Level FlightAware Transoceanic
Fri 08:46:00 PM 44.5920 -165.2166 262° West 483 556 40,000  Level FlightAware Transoceanic
Fri 08:47:00 PM 44.5729 -165.4022 262° West 483 556 40,000  Level FlightAware Transoceanic
Fri 08:48:00 PM 44.5536 -165.5878 262° West 483 556 40,000  Level FlightAware Transoceanic
Fri 08:49:00 PM 44.5339 -165.7732 261° West 483 556 40,000  Level FlightAware Transoceanic
Fri 08:50:00 PM 44.5140 -165.9585 261° West 483 556 40,000  Level FlightAware Transoceanic
Fri 08:51:00 PM 44.4937 -166.1437 261° West 483 556 40,000  Level FlightAware Transoceanic
Fri 08:52:00 PM 44.4732 -166.3288 261° West 483 556 40,000  Level FlightAware Transoceanic
Fri 08:53:00 PM 44.4523 -166.5137 261° West 483 556 40,000  Level FlightAware Transoceanic
Fri 08:53:45 PM 44.4333 -166.7000 261° West 489 563 40,000  Level Oakland Oceanic (ODAPS)
Fri 08:54:00 PM 44.4312 -166.6985 261° West 483 556 40,000  Level FlightAware Transoceanic
Fri 08:55:00 PM 44.4097 -166.8831 261° West 483 556 40,000  Level FlightAware Transoceanic
Fri 08:56:00 PM 44.3880 -167.0676 261° West 483 556 40,000  Level FlightAware Transoceanic
Fri 08:57:00 PM 44.3659 -167.2520 260° West 483 556 40,000  Level FlightAware Transoceanic
Fri 08:58:00 PM 44.3436 -167.4362 260° West 483 556 40,000  Level FlightAware Transoceanic
Fri 08:59:00 PM 44.3210 -167.6203 260° West 483 556 40,000  Level FlightAware Transoceanic
Fri 09:00:00 PM 44.2913 -167.8702 260° West 489 563 40,000  Level FlightAware Transoceanic
Fri 09:01:00 PM 44.2664 -168.0647 260° West 489 563 40,000  Level FlightAware Transoceanic
Fri 09:02:00 PM 44.2412 -168.2590 260° West 489 563 40,000  Level FlightAware Transoceanic
Fri 09:03:00 PM 44.2158 -168.4531 260° West 489 563 40,000  Level FlightAware Transoceanic
Fri 09:04:00 PM 44.1899 -168.6471 259° West 489 563 40,000  Level FlightAware Transoceanic
Fri 09:05:00 PM 44.1638 -168.8409 259° West 489 563 40,000  Level FlightAware Transoceanic
Fri 09:06:00 PM 44.1373 -169.0345 259° West 489 563 40,000  Level FlightAware Transoceanic
Fri 09:07:00 PM 44.1105 -169.2280 259° West 489 563 40,000  Level FlightAware Transoceanic
Fri 09:07:36 PM 44.1000 -169.2833 259° West 494 568 40,000  Level Oakland Oceanic (ODAPS)
Fri 09:08:00 PM 44.0834 -169.4212 259° West 489 563 40,000  Level FlightAware Transoceanic
Fri 09:09:00 PM 44.0559 -169.6143 259° West 489 563 40,000  Level FlightAware Transoceanic
Fri 09:10:00 PM 44.0281 -169.8073 259° West 489 563 40,000  Level FlightAware Transoceanic
Fri 09:11:00 PM 44.0000 -170.0000 266° West 489 563 40,000  Level FlightAware Transoceanic
Fri 09:11:35 PM 44.0000 -170.0000 266° West 489 563 40,000  Level Oakland Oceanic (ODAPS)
Fri 09:12:00 PM 43.9895 -170.1878 265° West 489 563 40,000  Level FlightAware Transoceanic
Fri 09:13:00 PM 43.9783 -170.3826 265° West 494 568 40,000  Level FlightAware Transoceanic
Fri 09:14:00 PM 43.9669 -170.5738 265° West 494 568 40,000  Level FlightAware Transoceanic
Fri 09:15:00 PM 43.9552 -170.7650 265° West 494 568 40,000  Level FlightAware Transoceanic
Fri 09:16:00 PM 43.9432 -170.9560 265° West 494 568 40,000  Level FlightAware Transoceanic
Fri 09:17:00 PM 43.9323 -171.1257 265° West 489 563 40,000  Level FlightAware Transoceanic
Fri 09:18:00 PM 43.9200 -171.3131 265° West 489 563 40,000  Level FlightAware Transoceanic
Fri 09:19:00 PM 43.9073 -171.5004 265° West 489 563 40,000  Level FlightAware Transoceanic
Fri 09:20:00 PM 43.8944 -171.6876 264° West 489 563 40,000  Level FlightAware Transoceanic
Fri 09:21:00 PM 43.8811 -171.8748 264° West 489 563 40,000  Level FlightAware Transoceanic
Fri 09:21:30 PM 43.8833 -171.8667 264° West 491 565 40,000  Level Oakland Oceanic (ODAPS)
Fri 09:22:00 PM 43.8675 -172.0618 264° West 489 563 40,000  Level FlightAware Transoceanic
Fri 09:23:00 PM 43.8536 -172.2487 264° West 489 563 40,000  Level FlightAware Transoceanic
Fri 09:24:00 PM 43.8395 -172.4356 264° West 489 563 40,000  Level FlightAware Transoceanic
Fri 09:25:00 PM 43.8250 -172.6224 264° West 489 563 40,000  Level FlightAware Transoceanic
Fri 09:26:00 PM 43.8102 -172.8091 264° West 489 563 40,000  Level FlightAware Transoceanic
Fri 09:27:00 PM 43.7971 -172.9887 264° West 491 565 40,000  Level FlightAware Transoceanic
Fri 09:28:00 PM 43.7816 -173.1754 263° West 491 565 40,000  Level FlightAware Transoceanic
Fri 09:29:00 PM 43.7659 -173.3620 263° West 491 565 40,000  Level FlightAware Transoceanic
Fri 09:30:00 PM 43.7499 -173.5485 263° West 491 565 40,000  Level FlightAware Transoceanic
Fri 09:31:00 PM 43.7335 -173.7349 263° West 491 565 40,000  Level FlightAware Transoceanic
Fri 09:32:00 PM 43.7169 -173.9212 263° West 491 565 40,000  Level FlightAware Transoceanic
Fri 09:33:00 PM 43.6999 -174.1074 263° West 491 565 40,000  Level FlightAware Transoceanic
Fri 09:34:00 PM 43.6826 -174.2934 263° West 491 565 40,000  Level FlightAware Transoceanic
Fri 09:35:00 PM 43.6651 -174.4794 262° West 491 565 40,000  Level FlightAware Transoceanic
Fri 09:35:20 PM 43.6667 -174.4333 263° West 481 554 40,000  Level Oakland Oceanic (ODAPS)
Fri 09:36:00 PM 43.6472 -174.6653 262° West 491 565 40,000  Level FlightAware Transoceanic
Fri 09:37:00 PM 43.6291 -174.8510 262° West 491 565 40,000  Level FlightAware Transoceanic
Fri 09:38:00 PM 43.6106 -175.0367 262° West 491 565 40,000  Level FlightAware Transoceanic
Fri 09:39:00 PM 43.5918 -175.2222 262° West 491 565 40,000  Level FlightAware Transoceanic
Fri 09:40:00 PM 43.5728 -175.4076 262° West 491 565 40,000  Level FlightAware Transoceanic
Fri 09:41:00 PM 43.5588 -175.5199 262° West 481 554 40,000  Level FlightAware Transoceanic
Fri 09:42:00 PM 43.5398 -175.7007 262° West 481 554 40,000  Level FlightAware Transoceanic
Fri 09:43:00 PM 43.5206 -175.8813 262° West 481 554 40,000  Level FlightAware Transoceanic
Fri 09:44:00 PM 43.5010 -176.0617 261° West 481 554 40,000  Level FlightAware Transoceanic
Fri 09:45:00 PM 43.4812 -176.2421 261° West 481 554 40,000  Level FlightAware Transoceanic
Fri 09:46:00 PM 43.4611 -176.4224 261° West 481 554 40,000  Level FlightAware Transoceanic
Fri 09:47:00 PM 43.4407 -176.6025 261° West 481 554 40,000  Level FlightAware Transoceanic
Fri 09:48:00 PM 43.4200 -176.7825 261° West 481 554 40,000  Level FlightAware Transoceanic
Fri 09:49:00 PM 43.3991 -176.9624 261° West 481 554 40,000  Level FlightAware Transoceanic
Fri 09:49:11 PM 43.4000 -176.9333 261° West 481 554 40,000  Level Oakland Oceanic (ODAPS)
Fri 09:50:00 PM 43.3778 -177.1421 261° West 481 554 40,000  Level FlightAware Transoceanic
Fri 09:51:00 PM 43.3563 -177.3217 261° West 481 554 40,000  Level FlightAware Transoceanic
Fri 09:52:00 PM 43.3345 -177.5013 260° West 481 554 40,000  Level FlightAware Transoceanic
Fri 09:53:00 PM 43.3124 -177.6806 260° West 481 554 40,000  Level FlightAware Transoceanic
Fri 09:54:00 PM 43.2901 -177.8599 260° West 481 554 40,000  Level FlightAware Transoceanic
Fri 09:55:00 PM 43.2682 -178.0202 260° West 481 554 40,000  Level FlightAware Transoceanic
Fri 09:56:00 PM 43.2452 -178.2009 260° West 481 554 40,000  Level FlightAware Transoceanic
Fri 09:57:00 PM 43.2220 -178.3815 260° West 481 554 40,000  Level FlightAware Transoceanic
Fri 09:58:00 PM 43.1984 -178.5619 260° West 481 554 40,000  Level FlightAware Transoceanic
Fri 09:59:00 PM 43.1746 -178.7422 260° West 481 554 40,000  Level FlightAware Transoceanic
Fri 10:00:00 PM 43.1505 -178.9223 260° West 481 554 40,000  Level FlightAware Transoceanic
Fri 10:01:00 PM 43.1261 -179.1023 259° West 481 554 40,000  Level FlightAware Transoceanic
Fri 10:02:00 PM 43.1015 -179.2821 259° West 481 554 40,000  Level FlightAware Transoceanic
Fri 10:03:00 PM 43.0765 -179.4618 259° West 481 554 40,000  Level FlightAware Transoceanic
Fri 10:03:03 PM 43.0833 -179.4333 259° West 484 557 40,000  Level Oakland Oceanic (ODAPS)
Fri 10:04:00 PM 43.0513 -179.6414 259° West 481 554 40,000  Level FlightAware Transoceanic
Fri 10:05:00 PM 43.0258 -179.8208 259° West 481 554 40,000  Level FlightAware Transoceanic
Fri 10:06:00 PM 43.0000 -180.0000 258° West 481 554 40,000  Level FlightAware Transoceanic
Fri 10:06:18 PM 43.0000 180.0000 258° West 481 554 40,000  Level Oakland Oceanic (ODAPS)
Fri 10:07:00 PM 42.9735 179.8255 258° West 481 554 40,000  Level FlightAware Transoceanic
Fri 10:08:00 PM 42.9467 179.6512 258° West 481 554 40,000  Level FlightAware Transoceanic
Fri 10:09:00 PM 42.9183 179.4680 258° West 484 557 40,000  Level FlightAware Transoceanic
Fri 10:10:00 PM 42.8905 179.2910 258° West 484 557 40,000  Level FlightAware Transoceanic
Fri 10:11:00 PM 42.8624 179.1142 258° West 484 557 40,000  Level FlightAware Transoceanic
Fri 10:12:00 PM 42.8341 178.9375 258° West 481 554 40,000  Level FlightAware Transoceanic
Fri 10:13:00 PM 42.8055 178.7610 257° West 481 554 40,000  Level FlightAware Transoceanic
Fri 10:14:00 PM 42.7766 178.5847 257° West 481 554 40,000  Level FlightAware Transoceanic
Fri 10:15:00 PM 42.7475 178.4085 257° West 481 554 40,000  Level FlightAware Transoceanic
Fri 10:16:00 PM 42.7180 178.2325 257° West 481 554 40,000  Level FlightAware Transoceanic
Fri 10:16:56 PM 42.7000 178.1000 257° West 484 557 40,000  Level Oakland Oceanic (ODAPS)
Fri 10:17:00 PM 42.6884 178.0566 257° West 481 554 40,000  Level FlightAware Transoceanic
Fri 10:18:00 PM 42.6584 177.8809 257° West 481 554 40,000  Level FlightAware Transoceanic
Fri 10:19:00 PM 42.6282 177.7054 257° West 481 554 40,000  Level FlightAware Transoceanic
Fri 10:20:00 PM 42.5977 177.5301 257° West 481 554 40,000  Level FlightAware Transoceanic
Fri 10:21:00 PM 42.5669 177.3549 257° West 481 554 40,000  Level FlightAware Transoceanic
Fri 10:22:00 PM 42.5359 177.1799 256° West 481 554 40,000  Level FlightAware Transoceanic
Fri 10:23:00 PM 42.5110 177.0197 256° West 484 557 40,000  Level FlightAware Transoceanic
Fri 10:24:00 PM 42.4785 176.8403 256° West 484 557 40,000  Level FlightAware Transoceanic
Fri 10:25:00 PM 42.4458 176.6611 256° West 484 557 40,000  Level FlightAware Transoceanic
Fri 10:26:00 PM 42.4127 176.4821 256° West 484 557 40,000  Level FlightAware Transoceanic
Fri 10:27:00 PM 42.3794 176.3032 256° West 484 557 40,000  Level FlightAware Transoceanic
Fri 10:28:00 PM 42.3458 176.1246 256° West 484 557 40,000  Level FlightAware Transoceanic
Fri 10:29:00 PM 42.3119 175.9461 256° West 484 557 40,000  Level FlightAware Transoceanic
Fri 10:30:00 PM 42.2778 175.7679 255° West 484 557 40,000 556 Level FlightAware Transoceanic
Fri 10:30:48 PM 42.2500 175.6500 255° West 484 557 41,000  Climbing Oakland Oceanic (ODAPS)
Fri 10:31:00 PM 42.2433 175.5898 255° West 484 557 40,000 -833 Descending FlightAware Transoceanic
Fri 10:32:00 PM 42.2086 175.4119 255° West 484 557 40,000  Level FlightAware Transoceanic
Fri 10:33:00 PM 42.1737 175.2343 255° West 484 557 40,000  Level FlightAware Transoceanic
Fri 10:34:00 PM 42.1384 175.0568 255° West 484 557 40,000  Level FlightAware Transoceanic
Fri 10:35:00 PM 42.1029 174.8795 255° West 484 557 40,000  Level FlightAware Transoceanic
Fri 10:36:00 PM 42.0671 174.7024 255° West 484 557 40,000 500 Level FlightAware Transoceanic
Fri 10:37:00 PM 42.0369 174.5742 255° West 484 557 41,000 500 Climbing FlightAware Transoceanic
Fri 10:38:00 PM 42.0004 174.3956 255° West 484 557 41,000  Level FlightAware Transoceanic
Fri 10:39:00 PM 41.9636 174.2172 254° West 484 557 41,000  Level FlightAware Transoceanic
Fri 10:40:00 PM 41.9266 174.0390 254° West 484 557 41,000  Level FlightAware Transoceanic
Fri 10:41:00 PM 41.8893 173.8610 254° West 484 557 41,000  Level FlightAware Transoceanic
Fri 10:42:00 PM 41.8517 173.6833 254° West 484 557 41,000  Level FlightAware Transoceanic
Fri 10:43:00 PM 41.8138 173.5057 254° West 484 557 41,000  Level FlightAware Transoceanic
Fri 10:44:00 PM 41.7757 173.3284 254° West 484 557 41,000  Level FlightAware Transoceanic
Fri 10:44:39 PM 41.7667 173.2667 254° West 474 545 41,000  Level Oakland Oceanic (ODAPS)
Fri 10:45:00 PM 41.7372 173.1512 254° West 484 557 41,000  Level FlightAware Transoceanic
Fri 10:46:00 PM 41.6986 172.9743 254° West 484 557 41,000  Level FlightAware Transoceanic
Fri 10:47:00 PM 41.6596 172.7976 253° West 484 557 41,000  Level FlightAware Transoceanic
Fri 10:48:00 PM 41.6204 172.6211 253° West 484 557 41,000  Level FlightAware Transoceanic
Fri 10:49:00 PM 41.5809 172.4448 253° West 484 557 41,000  Level FlightAware Transoceanic
Fri 10:50:00 PM 41.5464 172.2786 253° West 474 545 41,000  Level FlightAware Transoceanic
Fri 10:51:00 PM 41.5089 172.1146 253° West 474 545 41,000  Level FlightAware Transoceanic
Fri 10:52:00 PM 41.4711 171.9508 253° West 474 545 41,000  Level FlightAware Transoceanic
Fri 10:53:00 PM 41.4331 171.7871 253° West 474 545 41,000  Level FlightAware Transoceanic
Fri 10:54:00 PM 41.3949 171.6237 253° West 474 545 41,000  Level FlightAware Transoceanic
Fri 10:55:00 PM 41.3564 171.4604 253° West 474 545 41,000  Level FlightAware Transoceanic
Fri 10:56:00 PM 41.3177 171.2974 252° West 474 545 41,000  Level FlightAware Transoceanic
Fri 10:57:00 PM 41.2788 171.1345 252° West 474 545 41,000  Level FlightAware Transoceanic
Fri 10:58:00 PM 41.2397 170.9719 252° West 474 545 41,000  Level FlightAware Transoceanic
Fri 10:58:33 PM 41.2333 170.9333 252° West 478 550 41,000  Level Oakland Oceanic (ODAPS)
Fri 10:59:00 PM 41.2003 170.8094 252° West 474 545 41,000  Level FlightAware Transoceanic
Fri 11:00:00 PM 41.1607 170.6471 252° West 474 545 41,000  Level FlightAware Transoceanic
Fri 11:01:00 PM 41.1209 170.4850 252° West 474 545 41,000  Level FlightAware Transoceanic
Fri 11:02:00 PM 41.0808 170.3232 252° West 474 545 41,000  Level FlightAware Transoceanic
Fri 11:03:00 PM 41.0405 170.1615 252° West 474 545 41,000  Level FlightAware Transoceanic
Fri 11:04:00 PM 41.0000 170.0000 259° West 474 545 41,000  Level FlightAware Transoceanic
Fri 11:04:16 PM 41.0000 170.0000 259° West 476 548 41,000  Level Oakland Oceanic (ODAPS)
Fri 11:05:00 PM 40.9743 169.8316 259° West 478 550 41,000  Level FlightAware Transoceanic
Fri 11:06:00 PM 40.9483 169.6633 258° West 478 550 41,000  Level FlightAware Transoceanic
Fri 11:07:00 PM 40.9221 169.4951 258° West 478 550 41,000  Level FlightAware Transoceanic
Fri 11:08:00 PM 40.8957 169.3271 258° West 478 550 41,000  Level FlightAware Transoceanic
Fri 11:09:00 PM 40.8690 169.1592 258° West 478 550 41,000  Level FlightAware Transoceanic
Fri 11:10:00 PM 40.8394 168.9747 258° West 476 548 41,000  Level FlightAware Transoceanic
Fri 11:11:00 PM 40.8117 168.8043 258° West 476 548 41,000  Level FlightAware Transoceanic
Fri 11:12:00 PM 40.7838 168.6341 258° West 476 548 41,000  Level FlightAware Transoceanic
Fri 11:12:23 PM 40.7833 168.6000 258° West 471 542 41,000  Level Oakland Oceanic (ODAPS)
Fri 11:13:00 PM 40.7557 168.4639 258° West 476 548 41,000  Level FlightAware Transoceanic
Fri 11:14:00 PM 40.7273 168.2940 258° West 476 548 41,000  Level FlightAware Transoceanic
Fri 11:15:00 PM 40.6986 168.1242 257° West 476 548 41,000  Level FlightAware Transoceanic
Fri 11:16:00 PM 40.6697 167.9545 257° West 476 548 41,000  Level FlightAware Transoceanic
Fri 11:17:00 PM 40.6406 167.7850 257° West 476 548 41,000  Level FlightAware Transoceanic
Fri 11:18:00 PM 40.6105 167.5856 257° West 471 542 41,000  Level FlightAware Transoceanic
Fri 11:19:00 PM 40.5808 167.4170 257° West 471 542 41,000  Level FlightAware Transoceanic
Fri 11:20:00 PM 40.5509 167.2486 257° West 471 542 41,000  Level FlightAware Transoceanic
Fri 11:21:00 PM 40.5207 167.0803 257° West 471 542 41,000  Level FlightAware Transoceanic
Fri 11:22:00 PM 40.4903 166.9122 257° West 471 542 41,000  Level FlightAware Transoceanic
Fri 11:23:00 PM 40.4597 166.7443 256° West 471 542 41,000  Level FlightAware Transoceanic
Fri 11:24:00 PM 40.4288 166.5765 256° West 471 542 41,000  Level FlightAware Transoceanic
Fri 11:25:00 PM 40.3977 166.4088 256° West 471 542 41,000  Level FlightAware Transoceanic
Fri 11:26:00 PM 40.3663 166.2414 256° West 471 542 41,000  Level FlightAware Transoceanic
Fri 11:26:15 PM 40.3667 166.3000 256° West 469 540 41,000  Level Oakland Oceanic (ODAPS)
Fri 11:27:00 PM 40.3347 166.0740 256° West 471 542 41,000  Level FlightAware Transoceanic
Fri 11:28:00 PM 40.3028 165.9068 256° West 471 542 41,000  Level FlightAware Transoceanic
Fri 11:29:00 PM 40.2707 165.7398 256° West 471 542 41,000  Level FlightAware Transoceanic
Fri 11:30:00 PM 40.2384 165.5730 256° West 471 542 41,000  Level FlightAware Transoceanic
Fri 11:31:00 PM 40.2058 165.4063 256° West 471 542 41,000  Level FlightAware Transoceanic
Fri 11:32:00 PM 40.1788 165.3148 256° West 469 540 41,000  Level FlightAware Transoceanic
Fri 11:33:00 PM 40.1467 165.1512 256° West 469 540 41,000  Level FlightAware Transoceanic
Fri 11:34:00 PM 40.1143 164.9877 255° West 469 540 41,000  Level FlightAware Transoceanic
Fri 11:35:00 PM 40.0817 164.8243 255° West 469 540 41,000  Level FlightAware Transoceanic
Fri 11:36:00 PM 40.0489 164.6611 255° West 469 540 41,000  Level FlightAware Transoceanic
Fri 11:37:00 PM 40.0159 164.4981 255° West 469 540 41,000  Level FlightAware Transoceanic
Fri 11:38:00 PM 39.9826 164.3352 255° West 469 540 41,000  Level FlightAware Transoceanic
Fri 11:39:00 PM 39.9491 164.1725 255° West 469 540 41,000  Level FlightAware Transoceanic
Fri 11:40:00 PM 39.9154 164.0100 255° West 469 540 41,000  Level FlightAware Transoceanic
Fri 11:41:00 PM 39.8815 163.8476 255° West 469 540 41,000  Level FlightAware Transoceanic
Fri 11:42:00 PM 39.8473 163.6853 255° West 469 540 41,000  Level FlightAware Transoceanic
Fri 11:43:00 PM 39.8129 163.5233 254° West 469 540 41,000  Level FlightAware Transoceanic
Fri 11:44:00 PM 39.7783 163.3613 254° West 469 540 41,000  Level FlightAware Transoceanic
Fri 11:45:00 PM 39.7434 163.1996 254° West 469 540 41,000  Level FlightAware Transoceanic
Fri 11:46:00 PM 39.7083 163.0380 254° West 469 540 41,000  Level FlightAware Transoceanic
Fri 11:47:00 PM 39.6730 162.8766 254° West 469 540 41,000  Level FlightAware Transoceanic
Fri 11:48:00 PM 39.6375 162.7154 254° West 469 540 41,000  Level FlightAware Transoceanic
Fri 11:49:00 PM 39.6018 162.5543 254° West 469 540 41,000  Level FlightAware Transoceanic
Fri 11:50:00 PM 39.5658 162.3934 254° West 469 540 41,000  Level FlightAware Transoceanic
Fri 11:51:00 PM 39.5296 162.2326 254° West 469 540 41,000  Level FlightAware Transoceanic
Fri 11:52:00 PM 39.4932 162.0720 254° West 469 540 41,000  Level FlightAware Transoceanic
Fri 11:53:00 PM 39.4566 161.9116 253° West 469 540 41,000  Level FlightAware Transoceanic
Fri 11:54:00 PM 39.4197 161.7514 253° West 469 540 41,000  Level FlightAware Transoceanic
Fri 11:55:00 PM 39.3827 161.5913 253° West 469 540 41,000  Level FlightAware Transoceanic
Fri 11:56:00 PM 39.3454 161.4314 253° West 469 540 41,000  Level FlightAware Transoceanic
Fri 11:57:00 PM 39.3079 161.2717 253° West 469 540 41,000  Level FlightAware Transoceanic
Fri 11:58:00 PM 39.2701 161.1121 253° West 469 540 41,000  Level FlightAware Transoceanic
Fri 11:59:00 PM 39.2322 160.9527 253° West 469 540 41,000  Level FlightAware Transoceanic
Sat 12:00:00 AM 39.1940 160.7935 253° West 469 540 41,000  Level FlightAware Transoceanic
Sat 12:01:00 AM 39.1557 160.6344 253° West 469 540 41,000  Level FlightAware Transoceanic
Sat 12:02:00 AM 39.1171 160.4756 253° West 469 540 41,000  Level FlightAware Transoceanic
Sat 12:03:00 AM 39.0783 160.3169 252° West 469 540 41,000  Level FlightAware Transoceanic
Sat 12:04:00 AM 39.0392 160.1584 252° West 469 540 41,000  Level FlightAware Transoceanic
Sat 12:05:00 AM 39.0000 160.0000 259° West 469 540 41,000  Level FlightAware Transoceanic
Sat 12:06:00 AM 38.9746 159.8346 259° West 469 540 41,000  Level FlightAware Transoceanic
Sat 12:07:00 AM 38.9490 159.6693 259° West 469 540 41,000  Level FlightAware Transoceanic
Sat 12:08:00 AM 38.9231 159.5041 259° West 469 540 41,000  Level FlightAware Transoceanic
Sat 12:09:00 AM 38.8970 159.3391 258° West 469 540 41,000  Level FlightAware Transoceanic
Sat 12:10:00 AM 38.8707 159.1742 258° West 469 540 41,000  Level FlightAware Transoceanic
Sat 12:11:00 AM 38.8441 159.0094 258° West 469 540 41,000  Level FlightAware Transoceanic
Sat 12:12:00 AM 38.8173 158.8447 258° West 469 540 41,000  Level FlightAware Transoceanic
Sat 12:13:00 AM 38.7903 158.6801 258° West 469 540 41,000  Level FlightAware Transoceanic
Sat 12:14:00 AM 38.7631 158.5157 258° West 469 540 41,000  Level FlightAware Transoceanic
Sat 12:15:00 AM 38.7356 158.3514 258° West 469 540 41,000  Level FlightAware Transoceanic
Sat 12:16:00 AM 38.7079 158.1872 258° West 469 540 41,000  Level FlightAware Transoceanic
Sat 12:17:00 AM 38.6799 158.0232 258° West 469 540 41,000  Level FlightAware Transoceanic
Sat 12:18:00 AM 38.6517 157.8593 258° West 469 540 41,000  Level FlightAware Transoceanic
Sat 12:19:00 AM 38.6234 157.6955 257° West 469 540 41,000  Level FlightAware Transoceanic
Sat 12:20:00 AM 38.5947 157.5318 257° West 469 540 41,000  Level FlightAware Transoceanic
Sat 12:21:00 AM 38.5659 157.3683 257° West 469 540 41,000  Level FlightAware Transoceanic
Sat 12:22:00 AM 38.5368 157.2049 257° West 469 540 41,000  Level FlightAware Transoceanic
Sat 12:23:00 AM 38.5075 157.0417 257° West 469 540 41,000  Level FlightAware Transoceanic
Sat 12:24:00 AM 38.4780 156.8785 257° West 469 540 41,000  Level FlightAware Transoceanic
Sat 12:25:00 AM 38.4482 156.7155 257° West 469 540 41,000  Level FlightAware Transoceanic
Sat 12:26:00 AM 38.4182 156.5527 257° West 469 540 41,000  Level FlightAware Transoceanic
Sat 12:27:00 AM 38.3880 156.3899 257° West 469 540 41,000  Level FlightAware Transoceanic
Sat 12:28:00 AM 38.3576 156.2274 257° West 469 540 41,000  Level FlightAware Transoceanic
Sat 12:29:00 AM 38.3269 156.0649 256° West 469 540 41,000  Level FlightAware Transoceanic
Sat 12:30:00 AM 38.2960 155.9026 256° West 469 540 41,000  Level FlightAware Transoceanic
Sat 12:31:00 AM 38.2649 155.7404 256° West 469 540 41,000  Level FlightAware Transoceanic
Sat 12:32:00 AM 38.2336 155.5784 256° West 469 540 41,000  Level FlightAware Transoceanic
Sat 12:33:00 AM 38.2020 155.4165 256° West 469 540 41,000  Level FlightAware Transoceanic
Sat 12:34:00 AM 38.1702 155.2547 256° West 469 540 41,000  Level FlightAware Transoceanic
Sat 12:35:00 AM 38.1382 155.0931 256° West 469 540 41,000  Level FlightAware Transoceanic
Sat 12:36:00 AM 38.1060 154.9316 256° West 469 540 41,000  Level FlightAware Transoceanic
Sat 12:37:00 AM 38.0736 154.7703 256° West 469 540 41,000  Level FlightAware Transoceanic
Sat 12:38:00 AM 38.0409 154.6091 256° West 469 540 41,000  Level FlightAware Transoceanic
Sat 12:39:00 AM 38.0080 154.4481 255° West 469 540 41,000  Level FlightAware Transoceanic
Sat 12:40:00 AM 37.9749 154.2872 255° West 469 540 41,000  Level FlightAware Transoceanic
Sat 12:41:00 AM 37.9416 154.1264 255° West 469 540 41,000  Level FlightAware Transoceanic
Sat 12:42:00 AM 37.9081 153.9658 255° West 469 540 41,000  Level FlightAware Transoceanic
Sat 12:43:00 AM 37.8743 153.8054 255° West 469 540 41,000  Level FlightAware Transoceanic
Sat 12:44:00 AM 37.8403 153.6451 255° West 469 540 41,000  Level FlightAware Transoceanic
Sat 12:45:00 AM 37.8061 153.4849 255° West 469 540 41,000  Level FlightAware Transoceanic
Sat 12:46:00 AM 37.7717 153.3249 255° West 469 540 41,000  Level FlightAware Transoceanic
Sat 12:47:00 AM 37.7371 153.1650 255° West 469 540 41,000  Level FlightAware Transoceanic
Sat 12:48:00 AM 37.7023 153.0053 255° West 469 540 41,000  Level FlightAware Transoceanic
Sat 12:49:00 AM 37.6672 152.8458 254° West 469 540 41,000  Level FlightAware Transoceanic
Sat 12:50:00 AM 37.6320 152.6863 254° West 469 540 41,000  Level FlightAware Transoceanic
Sat 12:51:00 AM 37.5965 152.5271 254° West 469 540 41,000  Level FlightAware Transoceanic
Sat 12:52:00 AM 37.5608 152.3680 254° West 469 540 41,000  Level FlightAware Transoceanic
Sat 12:53:00 AM 37.5249 152.2090 254° West 469 540 41,000  Level FlightAware Transoceanic
Sat 12:54:00 AM 37.4887 152.0502 254° West 469 540 41,000  Level FlightAware Transoceanic
Sat 12:55:00 AM 37.4524 151.8916 254° West 469 540 41,000  Level FlightAware Transoceanic
Sat 12:56:00 AM 37.4159 151.7331 254° West 469 540 41,000  Level FlightAware Transoceanic
Sat 12:57:00 AM 37.3791 151.5747 254° West 469 540 41,000  Level FlightAware Transoceanic
Sat 12:58:00 AM 37.3421 151.4166 254° West 469 540 41,000  Level FlightAware Transoceanic
Sat 12:59:00 AM 37.3050 151.2585 253° West 469 540 41,000  Level FlightAware Transoceanic
Sat 01:00:00 AM 37.2676 151.1007 253° West 469 540 41,000  Level FlightAware Transoceanic
Sat 01:01:00 AM 37.2300 150.9429 253° West 469 540 41,000  Level FlightAware Transoceanic
Sat 01:02:00 AM 37.1922 150.7854 253° West 469 540 41,000  Level FlightAware Transoceanic
Sat 01:03:00 AM 37.1541 150.6280 253° West 469 540 41,000  Level FlightAware Transoceanic
Sat 01:04:00 AM 37.1159 150.4708 253° West 469 540 41,000  Level FlightAware Transoceanic
Sat 01:05:00 AM 37.0775 150.3137 253° West 469 540 41,000  Level FlightAware Transoceanic
Sat 01:06:00 AM 37.0388 150.1568 253° West 469 540 41,000  Level FlightAware Transoceanic
Sat 01:07:00 AM 37.0016 150.0064 253° West  Level FlightAware Approximate
Sat 01:08:00 AM 36.9641 149.8561 253° West  Level FlightAware Approximate
Sat 01:09:00 AM 36.9899 149.8565 265° West  Level FlightAware Approximate
Sat 01:10:00 AM 36.9787 149.6997 265° West  Level FlightAware Approximate
Sat 01:11:00 AM 36.9673 149.5430 265° West  Level FlightAware Approximate
Sat 01:12:00 AM 36.9557 149.3863 265° West  Level FlightAware Approximate
Sat 01:13:00 AM 36.9439 149.2296 265° West  Level FlightAware Approximate
Sat 01:14:00 AM 36.9319 149.0731 265° West  Level FlightAware Approximate
Sat 01:15:00 AM 36.9196 148.9165 264° West  Level FlightAware Approximate
Sat 01:16:00 AM 36.9072 148.7601 264° West  Level FlightAware Approximate
Sat 01:17:00 AM 36.8946 148.6036 264° West  Level FlightAware Approximate
Sat 01:18:00 AM 36.8793 148.4478 255° West  Level FlightAware Approximate
Sat 01:19:00 AM 36.8472 148.2959 255° West  Level FlightAware Approximate
Sat 01:20:00 AM 36.8148 148.1441 255° West  Level FlightAware Approximate
Sat 01:21:00 AM 36.7822 147.9924 255° West  Level FlightAware Approximate
Sat 01:22:00 AM 36.7495 147.8409 255° West  Level FlightAware Approximate
Sat 01:23:00 AM 36.7165 147.6895 255° West  Level FlightAware Approximate
Sat 01:24:00 AM 36.6834 147.5382 255° West  Level FlightAware Approximate
Sat 01:25:00 AM 36.6501 147.3871 255° West  Level FlightAware Approximate
Sat 01:26:00 AM 36.6166 147.2361 255° West  Level FlightAware Approximate
Sat 01:27:00 AM 36.5828 147.0852 254° West  Level FlightAware Approximate
Sat 01:28:00 AM 36.5489 146.9344 254° West  Level FlightAware Approximate
Sat 01:29:00 AM 36.5149 146.7838 254° West  Level FlightAware Approximate
Sat 01:30:00 AM 36.4806 146.6334 254° West  Level FlightAware Approximate
Sat 01:31:00 AM 36.4462 146.4834 254° West  Level FlightAware Approximate
Sat 01:32:00 AM 36.4117 146.3337 254° West  Level FlightAware Approximate
Sat 01:33:00 AM 36.3691 146.1873 248° West  Level FlightAware Approximate
Sat 01:34:00 AM 36.3225 146.0429 248° West  Level FlightAware Approximate
Sat 01:35:00 AM 36.2757 145.8986 248° West  Level FlightAware Approximate
Sat 01:36:00 AM 36.2287 145.7544 248° West  Level FlightAware Approximate
Sat 01:37:00 AM 36.1856 145.6087 253° West  Level FlightAware Approximate
Sat 01:38:00 AM 36.1490 145.4602 259° West  Level FlightAware Approximate
Sat 01:39:00 AM 36.1246 145.3079 259° West  Level FlightAware Approximate
Sat 01:40:00 AM 36.1000 145.1558 259° West  Level FlightAware Approximate
Sat 01:41:00 AM 36.0752 145.0037 259° West  Level FlightAware Approximate
Sat 01:41:28 AM 36.0410 144.7980 259° West 464 534 41,000  Level FlightAware ADS-B
Sat 01:42:00 AM 36.0502 144.8517 259° West  Level FlightAware Approximate
Sat 01:42:08 AM 36.0250 144.6930 259° West 464 534 41,000  Level FlightAware ADS-B
Sat 01:42:47 AM 36.0120 144.6070 259° West 464 534 41,000  Level FlightAware ADS-B
Sat 01:43:18 AM 35.9960 144.5120 258° West 463 533 41,000  Level FlightAware ADS-B
Sat 01:43:49 AM 35.9840 144.4360 259° West 465 535 41,000  Level FlightAware ADS-B
Sat 01:44:29 AM 35.9710 144.3470 260° West 465 535 41,000  Level FlightAware ADS-B
Sat 01:45:07 AM 35.9590 144.2620 260° West 465 535 41,000  Level FlightAware ADS-B
Sat 01:45:43 AM 35.9480 144.1820 260° West 465 535 41,000  Level FlightAware ADS-B
Sat 01:46:20 AM 35.9360 144.1000 260° West 465 535 41,000  Level FlightAware ADS-B
Sat 01:46:56 AM 35.9250 144.0200 260° West 465 535 41,000  Level FlightAware ADS-B
Sat 01:47:33 AM 35.8890 143.8450 256° West 469 540 41,000  Level FlightAware ADS-B
Sat 01:48:12 AM 35.8680 143.7440 256° West 468 539 41,000  Level FlightAware ADS-B
Sat 01:48:58 AM 35.8460 143.6370 256° West 467 537 41,000  Level FlightAware ADS-B
Sat 01:49:28 AM 35.8300 143.5550 256° West 411 473 41,000  Level FlightAware ADS-B
Sat 01:50:02 AM 35.8120 143.4680 256° West 438 504 41,000  Level FlightAware ADS-B
Sat 01:50:49 AM 35.7870 143.3430 256° West 463 533 41,000  Level FlightAware ADS-B
Sat 01:51:23 AM 35.7690 143.2550 256° West 460 529 41,000 -783 Level FlightAware ADS-B
Sat 01:51:58 AM 35.7510 143.1640 256° West 466 536 40,100 -1,467 Descending FlightAware ADS-B
Sat 01:52:53 AM 35.7290 143.0320 258° West 474 545 38,800 -857 Descending FlightAware ADS-B
Sat 01:53:29 AM 35.7160 142.9510 259° West 474 545 38,800 -3,781 Level FlightAware ADS-B
Sat 01:54:06 AM 35.7070 142.8260 265° West 489 563 34,200 -5,463 Descending FlightAware ADS-B
Sat 01:54:36 AM 35.6980 142.7410 263° West 491 565 32,700 -3,288 Descending FlightAware ADS-B
Sat 01:55:19 AM 35.6840 142.6220 262° West 499 574 30,200 -3,073 Descending FlightAware ADS-B
Sat 01:55:58 AM 35.6730 142.5200 262° West 488 562 28,500 -2,692 Descending FlightAware ADS-B
Sat 01:56:37 AM 35.6610 142.4190 262° West 453 521 26,700 -2,684 Descending FlightAware ADS-B
Sat 01:57:14 AM 35.6500 142.3250 262° West 411 473 25,100 -2,364 Descending FlightAware ADS-B
Sat 01:57:43 AM 35.6430 142.2690 261° West 396 456 24,100 -2,354 Descending FlightAware ADS-B
Sat 01:58:33 AM 35.6290 142.1500 262° West 384 442 22,000 -2,333 Descending FlightAware ADS-B
Sat 01:59:13 AM 35.6190 142.0660 262° West 369 425 20,600 -1,765 Descending FlightAware ADS-B
Sat 01:59:58 AM 35.6100 141.9900 262° West 334 384 19,500 -2,071 Descending FlightAware ADS-B
Sat 02:00:37 AM 35.6000 141.9090 261° West 318 366 17,700 -2,167 Descending FlightAware ADS-B
Sat 02:01:10 AM 35.5930 141.8540 261° West 316 364 16,900 -1,286 Descending FlightAware ADS-B
Sat 02:01:47 AM 35.5850 141.7870 262° West 306 352 16,200 -771 Descending FlightAware ADS-B
Sat 02:02:20 AM 35.5810 141.7320 265° West 300 345 16,000 -174 Descending FlightAware ADS-B
Sat 02:02:56 AM 35.5780 141.6720 266° West 300 345 16,000  Level FlightAware ADS-B
Sat 02:03:36 AM 35.5850 141.6030 277° West 307 353 16,000  Level FlightAware ADS-B
Sat 02:03:55 AM 35.6040 141.5810 317° Northwest 321 369 16,000  Level FlightAware ADS-B
Sat 02:04:16 AM 35.6370 141.5690 344° North 331 381 16,000 -436 Level FlightAware ADS-B
Sat 02:04:50 AM 35.6880 141.5560 348° North 329 379 15,600 -304 Descending FlightAware ADS-B
Sat 02:05:35 AM 35.7450 141.5410 348° North 329 379 15,600  Level FlightAware ADS-B
Sat 02:06:08 AM 35.7870 141.5300 348° North 329 379 15,600 -1,477 Level FlightAware ADS-B
Sat 02:06:40 AM 35.8570 141.5140 350° North 320 368 14,000 -1,391 Descending FlightAware ADS-B
Sat 02:07:17 AM 35.9020 141.5010 347° North 320 368 14,000 -840 Level FlightAware ADS-B
Sat 02:07:30 AM 35.9220 141.4830 324° Northwest 317 365 13,300 -1,395 Descending FlightAware ADS-B
Sat 02:08:00 AM 35.9540 141.4580 328° Northwest 308 354 13,000 -923 Descending FlightAware ADS-B
Sat 02:08:48 AM 36.0120 141.4130 328° Northwest 296 341 12,100 -1,077 Descending FlightAware ADS-B
Sat 02:09:18 AM 36.0270 141.3780 298° West 278 320 11,600 -1,448 Descending FlightAware ADS-B
Sat 02:09:46 AM 36.0150 141.3170 256° West 267 307 10,700 -1,333 Descending FlightAware ADS-B
Sat 02:10:21 AM 36.0010 141.2730 249° West 262 302 10,200 -583 Descending FlightAware ADS-B
Sat 02:10:58 AM 35.9810 141.2190 245° Southwest 254 292 10,000 -353 Descending FlightAware ADS-B
Sat 02:11:29 AM 35.9660 141.1780 246° West 248 285 9,800 -321 Descending FlightAware ADS-B
Sat 02:11:54 AM 35.9580 141.1570 245° Southwest 247 284 9,700 -375 Descending FlightAware ADS-B
Sat 02:12:33 AM 35.9370 141.0990 246° West 247 284 9,400 -471 Descending FlightAware ADS-B
Sat 02:12:45 AM 35.9290 141.0790 244° Southwest 247 284 9,300 -486 Descending FlightAware ADS-B
Sat 02:13:10 AM 35.9190 141.0500 247° West 247 284 9,100 -732 Descending FlightAware ADS-B
Sat 02:13:26 AM 35.9100 141.0280 243° Southwest 254 292 8,800 -1,000 Descending FlightAware ADS-B
Sat 02:13:46 AM 35.9010 141.0040 245° Southwest 255 293 8,500 -923 Descending FlightAware ADS-B
Sat 02:14:05 AM 35.8900 140.9740 246° West 256 295 8,200 -529 Descending FlightAware ADS-B
Sat 02:14:20 AM 35.8830 140.9540 247° West 254 292 8,200 150 Level FlightAware ADS-B
Sat 02:14:45 AM 35.8720 140.9190 249° West 256 295 8,300 200 Climbing FlightAware ADS-B
Sat 02:14:50 AM 35.8720 140.9120 270° West 258 297 8,300  Level FlightAware ADS-B
Sat 02:15:00 AM 35.8740 140.8980 280° West 260 299 8,300  Level FlightAware ADS-B
Sat 02:15:05 AM 35.8760 140.8910 289° West 260 299 8,300 -720 Level FlightAware ADS-B
Sat 02:15:25 AM 35.8880 140.8640 299° West 261 300 8,000 -857 Descending FlightAware ADS-B
Sat 02:15:40 AM 35.8960 140.8440 296° West 260 299 7,800 -1,029 Descending FlightAware ADS-B
Sat 02:16:00 AM 35.9080 140.8170 299° West 258 297 7,400 -857 Descending FlightAware ADS-B
Sat 02:16:15 AM 35.9160 140.7980 297° West 258 297 7,300 -343 Descending FlightAware ADS-B
Sat 02:16:35 AM 35.9280 140.7710 299° West 262 302 7,200 -194 Descending FlightAware ADS-B
Sat 02:16:46 AM 35.9330 140.7580 295° West 262 302 7,200 162 Level FlightAware ADS-B
Sat 02:17:12 AM 35.9480 140.7240 299° West 263 303 7,300 133 Climbing FlightAware ADS-B
Sat 02:17:31 AM 35.9600 140.6970 299° West 269 310 7,300  Level FlightAware ADS-B
Sat 02:17:50 AM 35.9720 140.6690 298° West 271 312 7,300 -154 Level FlightAware ADS-B
Sat 02:18:10 AM 35.9830 140.6420 297° West 272 313 7,200 -667 Descending FlightAware ADS-B
Sat 02:18:35 AM 35.9980 140.6070 298° West 264 304 6,800 -960 Descending FlightAware ADS-B
Sat 02:19:00 AM 36.0130 140.5740 299° West 263 303 6,400 -800 Descending FlightAware ADS-B
Sat 02:19:20 AM 36.0240 140.5480 298° West 265 305 6,200 -300 Descending FlightAware ADS-B
Sat 02:19:40 AM 36.0350 140.5210 297° West 253 291 6,200  Level FlightAware ADS-B
Sat 02:20:01 AM 36.0460 140.4960 299° West 236 272 6,200 150 Level FlightAware ADS-B
Sat 02:20:20 AM 36.0560 140.4730 298° West 222 255 6,300 200 Climbing FlightAware ADS-B
Sat 02:20:31 AM 36.0590 140.4650 295° West 221 254 6,300  Level FlightAware ADS-B
Sat 02:21:02 AM 36.0750 140.4270 298° West 223 257 6,300  Level FlightAware ADS-B
Sat 02:21:20 AM 36.0830 140.4090 299° West 223 257 6,300  Level FlightAware ADS-B
Sat 02:21:38 AM 36.0930 140.3870 299° West 225 259 6,300  Level FlightAware ADS-B
Sat 02:21:59 AM 36.1050 140.3580 297° West 225 259 6,300  Level FlightAware ADS-B
Sat 02:22:13 AM 36.1120 140.3420 298° West 227 261 6,300 -167 Level FlightAware ADS-B
Sat 02:22:35 AM 36.1190 140.3160 288° West 223 257 6,200 -375 Descending FlightAware ADS-B
Sat 02:22:45 AM 36.1200 140.3030 275° West 221 254 6,100 -938 Descending FlightAware ADS-B
Sat 02:23:07 AM 36.1200 140.2750 270° West 219 252 5,700 -1,286 Descending FlightAware ADS-B
Sat 02:23:27 AM 36.1200 140.2500 270° West 225 259 5,200 -1,333 Descending FlightAware ADS-B
Sat 02:23:43 AM 36.1190 140.2290 267° West 227 261 4,900 -1,000 Descending FlightAware ADS-B
Sat 02:23:51 AM 36.1190 140.2180 270° West 224 258 4,800 -900 Descending FlightAware ADS-B
Sat 02:24:03 AM 36.1150 140.2060 248° West 221 254 4,600 -900 Descending FlightAware ADS-B
Sat 02:24:11 AM 36.1110 140.1970 241° Southwest 220 253 4,500 -750 Descending FlightAware ADS-B
Sat 02:24:19 AM 36.1040 140.1890 223° Southwest 218 251 4,400 -500 Descending FlightAware ADS-B
Sat 02:24:23 AM 36.1010 140.1860 219° Southwest 216 249 4,400 -400 Level FlightAware ADS-B
Sat 02:24:34 AM 36.0930 140.1810 207° Southwest 211 243 4,300 -667 Descending FlightAware ADS-B
Sat 02:24:41 AM 36.0850 140.1780 197° South 206 237 4,200 -500 Descending FlightAware ADS-B
Sat 02:24:46 AM 36.0820 140.1770 195° South 203 234 4,200  Level FlightAware ADS-B
Sat 02:25:16 AM 36.0540 140.1770 180° South 197 227 4,200 102 Level FlightAware ADS-B
Sat 02:25:45 AM 36.0270 140.1850 167° South 200 230 4,300 122 Climbing FlightAware ADS-B
Sat 02:26:05 AM 36.0120 140.1950 152° Southeast 184 212 4,300  Level FlightAware ADS-B
Sat 02:26:23 AM 35.9990 140.2050 148° Southeast 180 207 4,300  Level FlightAware ADS-B
Sat 02:26:42 AM 35.9850 140.2150 150° Southeast 179 206 4,300 -182 Level FlightAware ADS-B
Sat 02:26:56 AM 35.9750 140.2220 150° Southeast 178 205 4,200  Descending FlightAware ADS-B
Sat 02:27:21 AM 35.9570 140.2360 148° Southeast 180 207 4,300 -255 Climbing FlightAware ADS-B
Sat 02:27:43 AM 35.9410 140.2480 149° Southeast 185 213 4,000 -947 Descending FlightAware ADS-B
Sat 02:27:59 AM 35.9290 140.2560 152° Southeast 183 211 3,700 -1,050 Descending FlightAware ADS-B
Sat 02:28:23 AM 35.9120 140.2680 150° Southeast 177 204 3,300 -900 Descending FlightAware ADS-B
Sat 02:28:39 AM 35.9010 140.2770 146° Southeast 175 201 3,100 -833 Descending FlightAware ADS-B
Sat 02:28:59 AM 35.8870 140.2870 150° Southeast 173 199 2,800 -923 Descending FlightAware ADS-B
Sat 02:29:18 AM 35.8740 140.2960 151° Southeast 173 199 2,500 -857 Descending FlightAware ADS-B
Sat 02:29:41 AM 35.8580 140.3080 149° Southeast 169 194 2,200 -923 Descending FlightAware ADS-B
Sat 02:29:57 AM 35.8480 140.3150 150° Southeast 162 186 1,900 -882 Descending FlightAware ADS-B
Sat 02:30:15 AM 35.8360 140.3240 149° Southeast 163 188 1,700 -800 Descending FlightAware ADS-B
Sat 02:30:27 AM 35.8280 140.3290 153° Southeast 162 186 1,500 -882 Descending FlightAware ADS-B
Sat 02:30:49 AM 35.8160 140.3380 149° Southeast 148 170 1,200 -632 Descending FlightAware ADS-B
Sat 02:31:05 AM 35.8060 140.3460 147° Southeast 145 167 1,100 -667 Descending FlightAware ADS-B
Sat 02:31:25 AM 35.7940 140.3540 152° Southeast 140 161 800 -750 Descending FlightAware ADS-B
Sat 02:31:37 AM 35.7880 140.3590 146° Southeast 138 159 700 -353 Descending FlightAware ADS-B
Sat 02:32:16 AM 35.7680 140.3730 150° Southeast 145 167 500 -308 Descending FlightAware ADS-B

Login

Don't have an account? Register now (free) for customized features, flight alerts, and more!